SIA326 WSSS-EDDF
Flight info
| Callsign | SIA326 |
|---|---|
| Flight time | 12h 32m |
| Altitude | 32000 |
| Route | AROSO3A AROSO Y513 KALIL Y501 RINBA Y503 VPL P628 VATLA/N0507F340 P628 VIKIT/N0507F360 P628 RK G202 ZB L750 RANAH B449 ETRAP B447 KRS/N0494F380 B143 TUNEK A909 RODAR M11 REBLO UM11 CRM UL746 ODERO DCT OPT DCT IRLOX DCT BUDOP DCT MAREG DCT KOVEL DCT DITIS DCT RAPET T170 VAGAB/N0398F240 T170 GAPLA T178 KERAX KERAX5A |
| Aircraft | A388/J-SADE2E3FGHIJ3J4J5M1RWXY/LB1D1 |
Departure
| Time | 2026-05-05 23:59 |
|---|---|
| Airport | Singapore Changi Airport (WSSS) |
Arrival
| Time | 2026-05-06 12:31 |
|---|---|
| Airport | Frankfurt Main Airport (EDDF) |
| Time | Latitude | Longitude | Altitude | Speed | Heading |
|---|---|---|---|---|---|
| 2026-05-05 22:52 | 1.35776 | 103.98519 | 30 ft | 0 kts | 72° |
| 2026-05-05 23:38 | 1.35771 | 103.98500 | 30 ft | 4 kts | 82° |
| 2026-05-05 23:38 | 1.35771 | 103.98475 | 30 ft | 4 kts | 101° |
| 2026-05-05 23:38 | 1.35779 | 103.98452 | 27 ft | 4 kts | 123° |
| 2026-05-05 23:38 | 1.35795 | 103.98435 | 29 ft | 4 kts | 150° |
| 2026-05-05 23:39 | 1.35814 | 103.98430 | 28 ft | 4 kts | 186° |
| 2026-05-05 23:39 | 1.35824 | 103.98432 | 27 ft | 1 kts | 202° |
| 2026-05-05 23:48 | 1.35822 | 103.98431 | 27 ft | 1 kts | 202° |
| 2026-05-05 23:48 | 1.35796 | 103.98420 | 29 ft | 7 kts | 202° |
| 2026-05-05 23:48 | 1.35700 | 103.98380 | 30 ft | 20 kts | 202° |
| 2026-05-05 23:48 | 1.35578 | 103.98329 | 30 ft | 19 kts | 202° |
| 2026-05-05 23:49 | 1.35455 | 103.98277 | 30 ft | 19 kts | 203° |
| 2026-05-05 23:49 | 1.35332 | 103.98226 | 31 ft | 19 kts | 202° |
| 2026-05-05 23:49 | 1.35221 | 103.98179 | 30 ft | 16 kts | 200° |
| 2026-05-05 23:49 | 1.35118 | 103.98138 | 30 ft | 16 kts | 203° |
| 2026-05-05 23:50 | 1.35019 | 103.98095 | 30 ft | 15 kts | 203° |
| 2026-05-05 23:50 | 1.34944 | 103.98062 | 30 ft | 11 kts | 203° |
| 2026-05-05 23:50 | 1.34869 | 103.98031 | 30 ft | 12 kts | 203° |
| 2026-05-05 23:50 | 1.34797 | 103.98026 | 30 ft | 9 kts | 141° |
| 2026-05-05 23:51 | 1.34759 | 103.98107 | 30 ft | 21 kts | 112° |
| 2026-05-05 23:51 | 1.34687 | 103.98276 | 41 ft | 26 kts | 113° |
| 2026-05-05 23:51 | 1.34626 | 103.98419 | 48 ft | 21 kts | 113° |
| 2026-05-05 23:51 | 1.34568 | 103.98557 | 34 ft | 23 kts | 114° |
| 2026-05-05 23:52 | 1.34502 | 103.98707 | 30 ft | 21 kts | 113° |
| 2026-05-05 23:52 | 1.34462 | 103.98802 | 30 ft | 3 kts | 113° |
| 2026-05-05 23:52 | 1.34448 | 103.98827 | 30 ft | 7 kts | 142° |
| 2026-05-05 23:52 | 1.34361 | 103.98829 | 31 ft | 12 kts | 208° |
| 2026-05-05 23:53 | 1.34247 | 103.98781 | 30 ft | 25 kts | 202° |
| 2026-05-05 23:53 | 1.34098 | 103.98719 | 30 ft | 22 kts | 202° |
| 2026-05-05 23:53 | 1.33956 | 103.98659 | 30 ft | 22 kts | 203° |
| 2026-05-05 23:53 | 1.33829 | 103.98606 | 30 ft | 19 kts | 202° |
| 2026-05-05 23:54 | 1.33708 | 103.98555 | 30 ft | 19 kts | 204° |
| 2026-05-05 23:54 | 1.33589 | 103.98502 | 30 ft | 19 kts | 203° |
| 2026-05-05 23:54 | 1.33469 | 103.98452 | 30 ft | 19 kts | 202° |
| 2026-05-05 23:54 | 1.33350 | 103.98402 | 30 ft | 18 kts | 206° |
| 2026-05-05 23:55 | 1.33237 | 103.98344 | 30 ft | 18 kts | 202° |
| 2026-05-05 23:55 | 1.33120 | 103.98296 | 30 ft | 16 kts | 202° |
| 2026-05-05 23:55 | 1.33029 | 103.98261 | 30 ft | 12 kts | 180° |
| 2026-05-05 23:55 | 1.32978 | 103.98306 | 30 ft | 10 kts | 111° |
| 2026-05-05 23:56 | 1.32951 | 103.98375 | 31 ft | 11 kts | 112° |
| 2026-05-05 23:56 | 1.32923 | 103.98443 | 33 ft | 8 kts | 114° |
| 2026-05-05 23:56 | 1.32906 | 103.98495 | 33 ft | 7 kts | 74° |
| 2026-05-05 23:56 | 1.32922 | 103.98518 | 33 ft | 0 kts | 22° |
| 2026-05-05 23:57 | 1.32926 | 103.98519 | 33 ft | 6 kts | 23° |
| 2026-05-05 23:58 | 1.33171 | 103.98623 | 33 ft | 74 kts | 23° |
| 2026-05-05 23:58 | 1.33861 | 103.98914 | 33 ft | 137 kts | 22° |
| 2026-05-05 23:58 | 1.34885 | 103.99341 | 36 ft | 178 kts | 22° |
| 2026-05-05 23:58 | 1.36071 | 103.99845 | 284 ft | 189 kts | 24° |
| 2026-05-05 23:59 | 1.37280 | 104.00369 | 686 ft | 189 kts | 22° |
| 2026-05-05 23:59 | 1.38511 | 104.00867 | 1106 ft | 191 kts | 22° |
| 2026-05-05 23:59 | 1.39761 | 104.01366 | 1453 ft | 193 kts | 22° |
| 2026-05-05 23:59 | 1.41033 | 104.01871 | 1651 ft | 202 kts | 22° |
| 2026-05-06 00:00 | 1.42362 | 104.02407 | 1788 ft | 210 kts | 23° |
| 2026-05-06 00:00 | 1.43721 | 104.02996 | 1959 ft | 216 kts | 25° |
| 2026-05-06 00:00 | 1.45094 | 104.03615 | 2080 ft | 222 kts | 25° |
| 2026-05-06 00:00 | 1.46523 | 104.04250 | 2212 ft | 228 kts | 24° |
| 2026-05-06 00:01 | 1.48030 | 104.04881 | 2299 ft | 245 kts | 17° |
| 2026-05-06 00:01 | 1.49769 | 104.05013 | 2530 ft | 261 kts | 349° |
| 2026-05-06 00:01 | 1.51485 | 104.04322 | 2877 ft | 270 kts | 331° |
| 2026-05-06 00:01 | 1.53132 | 104.03402 | 3401 ft | 271 kts | 330° |
| 2026-05-06 00:02 | 1.54785 | 104.02472 | 3939 ft | 273 kts | 330° |
| 2026-05-06 00:02 | 1.56452 | 104.01548 | 4464 ft | 275 kts | 331° |
| 2026-05-06 00:02 | 1.58136 | 104.00629 | 5003 ft | 277 kts | 331° |
| 2026-05-06 00:02 | 1.59836 | 103.99708 | 5484 ft | 279 kts | 331° |
| 2026-05-06 00:03 | 1.61555 | 103.98780 | 5987 ft | 282 kts | 331° |
| 2026-05-06 00:03 | 1.63289 | 103.97845 | 6460 ft | 284 kts | 331° |
| 2026-05-06 00:03 | 1.65013 | 103.96915 | 6909 ft | 286 kts | 332° |
| 2026-05-06 00:03 | 1.66776 | 103.95965 | 7358 ft | 289 kts | 332° |
| 2026-05-06 00:04 | 1.68553 | 103.95006 | 7805 ft | 291 kts | 332° |
| 2026-05-06 00:04 | 1.70346 | 103.94038 | 8244 ft | 294 kts | 332° |
| 2026-05-06 00:04 | 1.72155 | 103.93062 | 8693 ft | 296 kts | 332° |
| 2026-05-06 00:04 | 1.73983 | 103.92075 | 9129 ft | 299 kts | 331° |
| 2026-05-06 00:05 | 1.77081 | 103.89350 | 9957 ft | 303 kts | 306° |
| 2026-05-06 00:05 | 1.78371 | 103.87614 | 10199 ft | 312 kts | 307° |
| 2026-05-06 00:05 | 1.79688 | 103.85900 | 10516 ft | 316 kts | 308° |
| 2026-05-06 00:06 | 1.81038 | 103.84159 | 10876 ft | 318 kts | 308° |
| 2026-05-06 00:06 | 1.82401 | 103.82403 | 11257 ft | 320 kts | 308° |
| 2026-05-06 00:06 | 1.83771 | 103.80635 | 11556 ft | 325 kts | 308° |
| 2026-05-06 00:06 | 1.85176 | 103.78819 | 11642 ft | 334 kts | 308° |
| 2026-05-06 00:07 | 1.86629 | 103.76942 | 11725 ft | 348 kts | 308° |
| 2026-05-06 00:07 | 1.88132 | 103.74996 | 11850 ft | 361 kts | 308° |
| 2026-05-06 00:07 | 1.89684 | 103.72988 | 12177 ft | 366 kts | 308° |
| 2026-05-06 00:07 | 1.91246 | 103.70964 | 12606 ft | 368 kts | 308° |
| 2026-05-06 00:08 | 1.92813 | 103.68925 | 13025 ft | 371 kts | 308° |
| 2026-05-06 00:08 | 1.94393 | 103.66869 | 13455 ft | 374 kts | 308° |
| 2026-05-06 00:08 | 1.95982 | 103.64803 | 13853 ft | 376 kts | 308° |
| 2026-05-06 00:08 | 1.97583 | 103.62721 | 14234 ft | 379 kts | 308° |
| 2026-05-06 00:09 | 1.99198 | 103.60623 | 14620 ft | 381 kts | 308° |
| 2026-05-06 00:09 | 2.00819 | 103.58516 | 14999 ft | 383 kts | 308° |
| 2026-05-06 00:09 | 2.02448 | 103.56398 | 15378 ft | 385 kts | 308° |
| 2026-05-06 00:09 | 2.04090 | 103.54263 | 15738 ft | 388 kts | 308° |
| 2026-05-06 00:10 | 2.05739 | 103.52119 | 16097 ft | 391 kts | 308° |
| 2026-05-06 00:10 | 2.07381 | 103.49984 | 16473 ft | 392 kts | 308° |
| 2026-05-06 00:10 | 2.09052 | 103.47812 | 16830 ft | 395 kts | 308° |
| 2026-05-06 00:10 | 2.10732 | 103.45629 | 17193 ft | 398 kts | 308° |
| 2026-05-06 00:11 | 2.12423 | 103.43430 | 17530 ft | 400 kts | 308° |
| 2026-05-06 00:11 | 2.13971 | 103.41111 | 17891 ft | 403 kts | 299° |
| 2026-05-06 00:11 | 2.15163 | 103.38569 | 18212 ft | 406 kts | 291° |
| 2026-05-06 00:11 | 2.16001 | 103.35869 | 18518 ft | 407 kts | 285° |
| 2026-05-06 00:12 | 2.16778 | 103.33138 | 18814 ft | 409 kts | 287° |
| 2026-05-06 00:12 | 2.17581 | 103.30399 | 19115 ft | 411 kts | 287° |
| 2026-05-06 00:12 | 2.18390 | 103.27654 | 19416 ft | 412 kts | 287° |
| 2026-05-06 00:12 | 2.19201 | 103.24899 | 19695 ft | 414 kts | 287° |
| 2026-05-06 00:13 | 2.20004 | 103.22166 | 19984 ft | 416 kts | 287° |
| 2026-05-06 00:13 | 2.20820 | 103.19383 | 20261 ft | 418 kts | 287° |
| 2026-05-06 00:13 | 2.21638 | 103.16590 | 20539 ft | 419 kts | 287° |
| 2026-05-06 00:13 | 2.22459 | 103.13785 | 20813 ft | 421 kts | 287° |
| 2026-05-06 00:14 | 2.23283 | 103.10970 | 21089 ft | 423 kts | 287° |
| 2026-05-06 00:14 | 2.24112 | 103.08139 | 21361 ft | 425 kts | 287° |
| 2026-05-06 00:14 | 2.24943 | 103.05300 | 21628 ft | 426 kts | 287° |
| 2026-05-06 00:14 | 2.25777 | 103.02452 | 21891 ft | 428 kts | 287° |
| 2026-05-06 00:15 | 2.26615 | 102.99588 | 22151 ft | 430 kts | 287° |
| 2026-05-06 00:15 | 2.27455 | 102.96716 | 22417 ft | 431 kts | 287° |
| 2026-05-06 00:15 | 2.28300 | 102.93832 | 22665 ft | 433 kts | 287° |
| 2026-05-06 00:15 | 2.29147 | 102.90936 | 22912 ft | 435 kts | 287° |
| 2026-05-06 00:16 | 2.30000 | 102.88025 | 23170 ft | 436 kts | 287° |
| 2026-05-06 00:16 | 2.30855 | 102.85104 | 23418 ft | 438 kts | 287° |
| 2026-05-06 00:16 | 2.31715 | 102.82180 | 23633 ft | 439 kts | 287° |
| 2026-05-06 00:16 | 2.32567 | 102.79283 | 23845 ft | 441 kts | 287° |
| 2026-05-06 00:17 | 2.33432 | 102.76337 | 24059 ft | 442 kts | 287° |
| 2026-05-06 00:17 | 2.34293 | 102.73392 | 24278 ft | 443 kts | 287° |
| 2026-05-06 00:17 | 2.35158 | 102.70429 | 24485 ft | 444 kts | 287° |
| 2026-05-06 00:17 | 2.36026 | 102.67456 | 24689 ft | 445 kts | 287° |
| 2026-05-06 00:18 | 2.36895 | 102.64478 | 24902 ft | 447 kts | 287° |
| 2026-05-06 00:18 | 2.37768 | 102.61487 | 25113 ft | 448 kts | 287° |
| 2026-05-06 00:18 | 2.38643 | 102.58493 | 25316 ft | 450 kts | 287° |
| 2026-05-06 00:18 | 2.39520 | 102.55491 | 25544 ft | 450 kts | 287° |
| 2026-05-06 00:19 | 2.40400 | 102.52480 | 25751 ft | 452 kts | 287° |
| 2026-05-06 00:19 | 2.41283 | 102.49454 | 25966 ft | 453 kts | 287° |
| 2026-05-06 00:19 | 2.42166 | 102.46429 | 26183 ft | 454 kts | 287° |
| 2026-05-06 00:19 | 2.43053 | 102.43391 | 26399 ft | 456 kts | 287° |
| 2026-05-06 00:20 | 2.43943 | 102.40344 | 26615 ft | 457 kts | 287° |
| 2026-05-06 00:20 | 2.44841 | 102.37285 | 26849 ft | 458 kts | 288° |
| 2026-05-06 00:20 | 2.46100 | 102.34364 | 27058 ft | 459 kts | 301° |
| 2026-05-06 00:20 | 2.47948 | 102.31768 | 27278 ft | 459 kts | 313° |
| 2026-05-06 00:21 | 2.50264 | 102.29635 | 27496 ft | 459 kts | 323° |
| 2026-05-06 00:21 | 2.52806 | 102.27689 | 27717 ft | 461 kts | 323° |
| 2026-05-06 00:21 | 2.55350 | 102.25721 | 27956 ft | 462 kts | 323° |
| 2026-05-06 00:21 | 2.57891 | 102.23740 | 28197 ft | 464 kts | 323° |
| 2026-05-06 00:22 | 2.60433 | 102.21749 | 28439 ft | 466 kts | 322° |
| 2026-05-06 00:22 | 2.62990 | 102.19743 | 28670 ft | 468 kts | 322° |
| 2026-05-06 00:22 | 2.65555 | 102.17729 | 28935 ft | 469 kts | 322° |
| 2026-05-06 00:22 | 2.68128 | 102.15708 | 29177 ft | 471 kts | 322° |
| 2026-05-06 00:23 | 2.70712 | 102.13680 | 29458 ft | 473 kts | 322° |
| 2026-05-06 00:23 | 2.73304 | 102.11645 | 29731 ft | 475 kts | 322° |
| 2026-05-06 00:23 | 2.75910 | 102.09599 | 29992 ft | 477 kts | 322° |
| 2026-05-06 00:23 | 2.78484 | 102.07579 | 30237 ft | 478 kts | 322° |
| 2026-05-06 00:24 | 2.81103 | 102.05522 | 30511 ft | 479 kts | 322° |
| 2026-05-06 00:24 | 2.83738 | 102.03454 | 30770 ft | 481 kts | 322° |
| 2026-05-06 00:24 | 2.86368 | 102.01389 | 31069 ft | 481 kts | 322° |
| 2026-05-06 00:24 | 2.89010 | 101.99315 | 31317 ft | 483 kts | 322° |
| 2026-05-06 00:25 | 2.91661 | 101.97232 | 31567 ft | 484 kts | 322° |
| 2026-05-06 00:25 | 2.94319 | 101.95145 | 31819 ft | 486 kts | 322° |
| 2026-05-06 00:25 | 2.96993 | 101.93044 | 31858 ft | 493 kts | 322° |
| 2026-05-06 00:26 | 3.02478 | 101.88736 | 31855 ft | 508 kts | 321° |
| 2026-05-06 00:26 | 3.08089 | 101.84328 | 31853 ft | 514 kts | 321° |
| 2026-05-06 00:27 | 3.13716 | 101.79908 | 31857 ft | 514 kts | 321° |
| 2026-05-06 00:27 | 3.19336 | 101.75491 | 31877 ft | 514 kts | 321° |
| 2026-05-06 00:28 | 3.24933 | 101.71092 | 31873 ft | 514 kts | 321° |
| 2026-05-06 00:28 | 3.30567 | 101.66682 | 31856 ft | 514 kts | 323° |
| 2026-05-06 00:29 | 3.36699 | 101.63076 | 31855 ft | 515 kts | 335° |
| 2026-05-06 00:29 | 3.43276 | 101.60186 | 31854 ft | 516 kts | 336° |
| 2026-05-06 00:30 | 3.49835 | 101.57259 | 31860 ft | 516 kts | 336° |
| 2026-05-06 00:30 | 3.56027 | 101.54500 | 31860 ft | 516 kts | 336° |
| 2026-05-06 00:31 | 3.62364 | 101.51680 | 31878 ft | 516 kts | 336° |
| 2026-05-06 00:31 | 3.68912 | 101.48767 | 31879 ft | 516 kts | 336° |
| 2026-05-06 00:32 | 3.75438 | 101.45862 | 31882 ft | 516 kts | 336° |
| 2026-05-06 00:32 | 3.82013 | 101.42936 | 31876 ft | 517 kts | 336° |
| 2026-05-06 00:33 | 3.88588 | 101.40011 | 31874 ft | 517 kts | 336° |
| 2026-05-06 00:33 | 3.95162 | 101.37088 | 31863 ft | 517 kts | 336° |
| 2026-05-06 00:34 | 4.01737 | 101.34163 | 31855 ft | 517 kts | 336° |
| 2026-05-06 00:34 | 4.08308 | 101.31240 | 31862 ft | 517 kts | 336° |
| 2026-05-06 00:35 | 4.14879 | 101.28315 | 31856 ft | 517 kts | 336° |
| 2026-05-06 00:35 | 4.21410 | 101.25409 | 31880 ft | 517 kts | 336° |
| 2026-05-06 00:36 | 4.27990 | 101.22480 | 31884 ft | 517 kts | 336° |
| 2026-05-06 00:36 | 4.34561 | 101.19554 | 31890 ft | 517 kts | 336° |
| 2026-05-06 00:37 | 4.41135 | 101.16626 | 31891 ft | 517 kts | 336° |
| 2026-05-06 00:37 | 4.47712 | 101.13697 | 31883 ft | 517 kts | 336° |
| 2026-05-06 00:38 | 4.54305 | 101.10760 | 31873 ft | 518 kts | 336° |
| 2026-05-06 00:38 | 4.60897 | 101.07845 | 31873 ft | 518 kts | 336° |
| 2026-05-06 00:39 | 4.67525 | 101.05005 | 31871 ft | 518 kts | 337° |
| 2026-05-06 00:39 | 4.74155 | 101.02159 | 31877 ft | 518 kts | 337° |
| 2026-05-06 00:40 | 4.80776 | 100.99306 | 31884 ft | 518 kts | 336° |
| 2026-05-06 00:40 | 4.87360 | 100.96467 | 31882 ft | 518 kts | 336° |
| 2026-05-06 00:41 | 4.93986 | 100.93609 | 31887 ft | 518 kts | 336° |
| 2026-05-06 00:41 | 5.00616 | 100.90748 | 31886 ft | 518 kts | 336° |
| 2026-05-06 00:42 | 5.07242 | 100.87885 | 31882 ft | 518 kts | 336° |
| 2026-05-06 00:42 | 5.13862 | 100.85023 | 31861 ft | 518 kts | 336° |
| 2026-05-06 00:43 | 5.20487 | 100.82159 | 31857 ft | 518 kts | 336° |
| 2026-05-06 00:43 | 5.27107 | 100.79297 | 31877 ft | 518 kts | 336° |
| 2026-05-06 00:44 | 5.33653 | 100.76369 | 31884 ft | 518 kts | 332° |
| 2026-05-06 00:44 | 5.39589 | 100.72290 | 31885 ft | 518 kts | 319° |
| 2026-05-06 00:45 | 5.44692 | 100.67195 | 31872 ft | 518 kts | 314° |
| 2026-05-06 00:45 | 5.49752 | 100.62054 | 31871 ft | 517 kts | 314° |
| 2026-05-06 00:46 | 5.54810 | 100.56911 | 31863 ft | 518 kts | 314° |
| 2026-05-06 00:46 | 5.59027 | 100.52614 | 31844 ft | 520 kts | 314° |
| 2026-05-06 00:47 | 5.64095 | 100.47446 | 31865 ft | 517 kts | 315° |
| 2026-05-06 00:47 | 5.69135 | 100.42307 | 31859 ft | 517 kts | 315° |
| 2026-05-06 00:48 | 5.74181 | 100.37159 | 31861 ft | 517 kts | 315° |
| 2026-05-06 00:48 | 5.79231 | 100.32006 | 31861 ft | 517 kts | 314° |
| 2026-05-06 00:49 | 5.84242 | 100.26890 | 31866 ft | 517 kts | 315° |
| 2026-05-06 00:49 | 5.89285 | 100.21741 | 31866 ft | 517 kts | 314° |
| 2026-05-06 00:50 | 5.94339 | 100.16579 | 31869 ft | 519 kts | 315° |
| 2026-05-06 00:50 | 5.99403 | 100.11406 | 31873 ft | 519 kts | 315° |
| 2026-05-06 00:51 | 6.04468 | 100.06230 | 31876 ft | 518 kts | 315° |
| 2026-05-06 00:51 | 6.09486 | 100.01101 | 31875 ft | 518 kts | 315° |
| 2026-05-06 00:52 | 6.14543 | 99.95931 | 31873 ft | 519 kts | 315° |
| 2026-05-06 00:52 | 6.19598 | 99.90761 | 31874 ft | 518 kts | 315° |
| 2026-05-06 00:53 | 6.24652 | 99.85591 | 31870 ft | 518 kts | 315° |
| 2026-05-06 00:53 | 6.29705 | 99.80420 | 31874 ft | 518 kts | 314° |
| 2026-05-06 00:54 | 6.34410 | 99.74955 | 31857 ft | 518 kts | 303° |
| 2026-05-06 00:54 | 6.37694 | 99.68529 | 31858 ft | 519 kts | 290° |
| 2026-05-06 00:55 | 6.40177 | 99.61760 | 31861 ft | 519 kts | 291° |
| 2026-05-06 00:55 | 6.42720 | 99.54956 | 31864 ft | 519 kts | 291° |
| 2026-05-06 00:56 | 6.45252 | 99.48152 | 31869 ft | 519 kts | 291° |
| 2026-05-06 00:56 | 6.47779 | 99.41351 | 31875 ft | 520 kts | 290° |
| 2026-05-06 00:57 | 6.50304 | 99.34547 | 31876 ft | 519 kts | 290° |
| 2026-05-06 00:57 | 6.52832 | 99.27732 | 31875 ft | 519 kts | 290° |
| 2026-05-06 00:58 | 6.55356 | 99.20928 | 31875 ft | 519 kts | 290° |
| 2026-05-06 00:58 | 6.57878 | 99.14124 | 31876 ft | 519 kts | 290° |
| 2026-05-06 00:59 | 6.60401 | 99.07316 | 31875 ft | 519 kts | 290° |
| 2026-05-06 00:59 | 6.62923 | 99.00507 | 31876 ft | 519 kts | 290° |
| 2026-05-06 01:00 | 6.65439 | 98.93708 | 31877 ft | 519 kts | 290° |
| 2026-05-06 01:00 | 6.67960 | 98.86894 | 31882 ft | 519 kts | 290° |
| 2026-05-06 01:01 | 6.70479 | 98.80083 | 31881 ft | 519 kts | 290° |
| 2026-05-06 01:01 | 6.72985 | 98.73304 | 31881 ft | 519 kts | 290° |
| 2026-05-06 01:02 | 6.75504 | 98.66486 | 31881 ft | 520 kts | 290° |
| 2026-05-06 01:02 | 6.78022 | 98.59668 | 31878 ft | 522 kts | 290° |
| 2026-05-06 01:03 | 6.80545 | 98.52833 | 31879 ft | 522 kts | 290° |
| 2026-05-06 01:03 | 6.83068 | 98.45994 | 31882 ft | 520 kts | 290° |
| 2026-05-06 01:04 | 6.85568 | 98.39216 | 31882 ft | 521 kts | 290° |
| 2026-05-06 01:04 | 6.88090 | 98.32373 | 31883 ft | 521 kts | 290° |
| 2026-05-06 01:05 | 6.90608 | 98.25536 | 31883 ft | 521 kts | 290° |
| 2026-05-06 01:05 | 6.93131 | 98.18686 | 31880 ft | 521 kts | 290° |
| 2026-05-06 01:06 | 6.95650 | 98.11841 | 31880 ft | 522 kts | 290° |
| 2026-05-06 01:06 | 6.98186 | 98.04998 | 31877 ft | 521 kts | 293° |
| 2026-05-06 01:06 | 6.99876 | 98.01774 | 31884 ft | 521 kts | 304° |
| 2026-05-06 01:07 | 7.02429 | 97.98554 | 31882 ft | 520 kts | 315° |
| 2026-05-06 01:07 | 7.08088 | 97.94036 | 31877 ft | 520 kts | 324° |
| 2026-05-06 01:08 | 7.13922 | 97.89718 | 31881 ft | 520 kts | 324° |
| 2026-05-06 01:08 | 7.19740 | 97.85402 | 31882 ft | 518 kts | 324° |
| 2026-05-06 01:09 | 7.25545 | 97.81101 | 31884 ft | 518 kts | 324° |
| 2026-05-06 01:09 | 7.31362 | 97.76792 | 31884 ft | 518 kts | 324° |
| 2026-05-06 01:10 | 7.37137 | 97.72513 | 31883 ft | 518 kts | 324° |
| 2026-05-06 01:10 | 7.42938 | 97.68212 | 31882 ft | 518 kts | 324° |
| 2026-05-06 01:11 | 7.48762 | 97.63894 | 31881 ft | 518 kts | 324° |
| 2026-05-06 01:11 | 7.54572 | 97.59585 | 31879 ft | 518 kts | 324° |
| 2026-05-06 01:12 | 7.60389 | 97.55269 | 31881 ft | 518 kts | 324° |
| 2026-05-06 01:12 | 7.66170 | 97.50977 | 31882 ft | 518 kts | 324° |
| 2026-05-06 01:13 | 7.71983 | 97.46671 | 31883 ft | 518 kts | 324° |
| 2026-05-06 01:13 | 7.77796 | 97.42365 | 31884 ft | 519 kts | 324° |
| 2026-05-06 01:14 | 7.86515 | 97.35901 | 31882 ft | 519 kts | 324° |
| 2026-05-06 01:14 | 7.91343 | 97.32319 | 31882 ft | 519 kts | 324° |
| 2026-05-06 01:15 | 7.97141 | 97.28017 | 31881 ft | 518 kts | 324° |
| 2026-05-06 01:15 | 8.02906 | 97.23613 | 31880 ft | 519 kts | 319° |
| 2026-05-06 01:16 | 8.07750 | 97.18222 | 31881 ft | 521 kts | 306° |
| 2026-05-06 01:16 | 8.11574 | 97.11991 | 31882 ft | 522 kts | 302° |
| 2026-05-06 01:17 | 8.15348 | 97.05733 | 31881 ft | 521 kts | 302° |
| 2026-05-06 01:17 | 8.19118 | 96.99477 | 31882 ft | 522 kts | 302° |
| 2026-05-06 01:18 | 8.22886 | 96.93207 | 31880 ft | 522 kts | 302° |
| 2026-05-06 01:18 | 8.26649 | 96.86941 | 31881 ft | 522 kts | 302° |
| 2026-05-06 01:19 | 8.30388 | 96.80714 | 31884 ft | 520 kts | 302° |
| 2026-05-06 01:19 | 8.34134 | 96.74469 | 31884 ft | 519 kts | 302° |
| 2026-05-06 01:20 | 8.37882 | 96.68220 | 31882 ft | 519 kts | 302° |
| 2026-05-06 01:20 | 8.41602 | 96.62016 | 31881 ft | 520 kts | 302° |
| 2026-05-06 01:21 | 8.45342 | 96.55774 | 31878 ft | 520 kts | 302° |
| 2026-05-06 01:21 | 8.49085 | 96.49525 | 31878 ft | 520 kts | 302° |
| 2026-05-06 01:22 | 8.52828 | 96.43273 | 31882 ft | 520 kts | 302° |
| 2026-05-06 01:22 | 8.56571 | 96.37017 | 31880 ft | 520 kts | 302° |
| 2026-05-06 01:23 | 8.60318 | 96.30753 | 31880 ft | 520 kts | 302° |
| 2026-05-06 01:23 | 8.64062 | 96.24490 | 31878 ft | 520 kts | 302° |
| 2026-05-06 01:24 | 8.67805 | 96.18228 | 31880 ft | 520 kts | 301° |
| 2026-05-06 01:24 | 8.71546 | 96.11963 | 31878 ft | 520 kts | 301° |
| 2026-05-06 01:25 | 8.75286 | 96.05699 | 31877 ft | 522 kts | 301° |
| 2026-05-06 01:25 | 8.79036 | 95.99413 | 31878 ft | 522 kts | 301° |
| 2026-05-06 01:26 | 8.82755 | 95.93169 | 31878 ft | 522 kts | 301° |
| 2026-05-06 01:26 | 8.86497 | 95.86883 | 31879 ft | 522 kts | 301° |
| 2026-05-06 01:27 | 8.90239 | 95.80596 | 31876 ft | 522 kts | 301° |
| 2026-05-06 01:27 | 8.93979 | 95.74310 | 31876 ft | 521 kts | 301° |
| 2026-05-06 01:28 | 8.97722 | 95.68013 | 31876 ft | 523 kts | 301° |
| 2026-05-06 01:28 | 9.01471 | 95.61706 | 31876 ft | 523 kts | 301° |
| 2026-05-06 01:29 | 9.05216 | 95.55400 | 31871 ft | 523 kts | 301° |
| 2026-05-06 01:29 | 9.08963 | 95.49090 | 31876 ft | 523 kts | 302° |
| 2026-05-06 01:30 | 9.12713 | 95.42773 | 31876 ft | 523 kts | 301° |
| 2026-05-06 01:30 | 9.16425 | 95.36513 | 31876 ft | 523 kts | 301° |
| 2026-05-06 01:31 | 9.20163 | 95.30207 | 31871 ft | 522 kts | 302° |
| 2026-05-06 01:31 | 9.23899 | 95.23903 | 31873 ft | 522 kts | 302° |
| 2026-05-06 01:32 | 9.27635 | 95.17595 | 31871 ft | 522 kts | 302° |
| 2026-05-06 01:32 | 9.31374 | 95.11279 | 31873 ft | 522 kts | 302° |
| 2026-05-06 01:33 | 9.35108 | 95.04966 | 31873 ft | 522 kts | 302° |
| 2026-05-06 01:33 | 9.38841 | 94.98654 | 31870 ft | 522 kts | 302° |
| 2026-05-06 01:34 | 9.42572 | 94.92340 | 31869 ft | 522 kts | 302° |
| 2026-05-06 01:34 | 9.46273 | 94.86075 | 31869 ft | 516 kts | 302° |
| 2026-05-06 01:35 | 9.49966 | 94.79821 | 31870 ft | 518 kts | 302° |
| 2026-05-06 01:35 | 9.53662 | 94.73558 | 31870 ft | 517 kts | 302° |
| 2026-05-06 01:36 | 9.57334 | 94.67332 | 31868 ft | 518 kts | 302° |
| 2026-05-06 01:36 | 9.61025 | 94.61071 | 31867 ft | 517 kts | 302° |
| 2026-05-06 01:37 | 9.64716 | 94.54806 | 31868 ft | 517 kts | 302° |
| 2026-05-06 01:37 | 9.68403 | 94.48544 | 31867 ft | 517 kts | 302° |
| 2026-05-06 01:38 | 9.72382 | 94.42484 | 31867 ft | 515 kts | 311° |
| 2026-05-06 01:38 | 9.77434 | 94.37374 | 31866 ft | 513 kts | 322° |
| 2026-05-06 01:39 | 9.82860 | 94.32731 | 31863 ft | 511 kts | 321° |
| 2026-05-06 01:39 | 9.88262 | 94.28066 | 31866 ft | 510 kts | 321° |
| 2026-05-06 01:40 | 9.93675 | 94.23400 | 31864 ft | 510 kts | 321° |
| 2026-05-06 01:40 | 9.99088 | 94.18734 | 31864 ft | 511 kts | 321° |
| 2026-05-06 01:41 | 10.04515 | 94.14055 | 31865 ft | 512 kts | 321° |
| 2026-05-06 01:41 | 10.09945 | 94.09372 | 31861 ft | 512 kts | 321° |
| 2026-05-06 01:42 | 10.15339 | 94.04717 | 31862 ft | 512 kts | 321° |
| 2026-05-06 01:42 | 10.20759 | 94.00038 | 31861 ft | 511 kts | 321° |
| 2026-05-06 01:43 | 10.26163 | 93.95369 | 31862 ft | 510 kts | 321° |
| 2026-05-06 01:43 | 10.31575 | 93.90693 | 31862 ft | 510 kts | 320° |
| 2026-05-06 01:44 | 10.36980 | 93.86020 | 31860 ft | 510 kts | 321° |
| 2026-05-06 01:44 | 10.42356 | 93.81370 | 31866 ft | 510 kts | 321° |
| 2026-05-06 01:45 | 10.47786 | 93.76671 | 31862 ft | 513 kts | 321° |
| 2026-05-06 01:45 | 10.53218 | 93.71968 | 31861 ft | 513 kts | 321° |
| 2026-05-06 01:46 | 10.58632 | 93.67278 | 31863 ft | 509 kts | 321° |
| 2026-05-06 01:46 | 10.64016 | 93.62611 | 31862 ft | 507 kts | 321° |
| 2026-05-06 01:47 | 10.69361 | 93.57979 | 31862 ft | 509 kts | 320° |
| 2026-05-06 01:47 | 10.74749 | 93.53304 | 31864 ft | 509 kts | 321° |
| 2026-05-06 01:48 | 10.80127 | 93.48636 | 31859 ft | 508 kts | 320° |
| 2026-05-06 01:48 | 10.85524 | 93.43950 | 31860 ft | 509 kts | 320° |
| 2026-05-06 01:49 | 10.90910 | 93.39271 | 31860 ft | 508 kts | 321° |
| 2026-05-06 01:49 | 10.95964 | 93.34880 | 31860 ft | 509 kts | 320° |
| 2026-05-06 01:50 | 11.01346 | 93.30199 | 31860 ft | 508 kts | 321° |
| 2026-05-06 01:50 | 11.06685 | 93.25554 | 31860 ft | 508 kts | 321° |
| 2026-05-06 01:51 | 11.12054 | 93.20880 | 31858 ft | 507 kts | 321° |
| 2026-05-06 01:51 | 11.17433 | 93.16197 | 31860 ft | 507 kts | 321° |
| 2026-05-06 01:52 | 11.22804 | 93.11518 | 31858 ft | 509 kts | 320° |
| 2026-05-06 01:52 | 11.28139 | 93.06867 | 31859 ft | 509 kts | 320° |
| 2026-05-06 01:53 | 11.33534 | 93.02160 | 31858 ft | 514 kts | 321° |
| 2026-05-06 01:53 | 11.38971 | 92.97416 | 31859 ft | 513 kts | 321° |
| 2026-05-06 01:54 | 11.44394 | 92.92682 | 31860 ft | 512 kts | 320° |
| 2026-05-06 01:54 | 11.49806 | 92.87954 | 31857 ft | 513 kts | 320° |
| 2026-05-06 01:55 | 11.55197 | 92.83242 | 31857 ft | 513 kts | 320° |
| 2026-05-06 01:55 | 11.60611 | 92.78509 | 31855 ft | 513 kts | 320° |
| 2026-05-06 01:56 | 11.65935 | 92.73654 | 31858 ft | 515 kts | 315° |
| 2026-05-06 01:56 | 11.70807 | 92.68292 | 31856 ft | 514 kts | 314° |
| 2026-05-06 01:57 | 11.75708 | 92.62948 | 31859 ft | 518 kts | 313° |
| 2026-05-06 01:57 | 11.80637 | 92.57566 | 31858 ft | 520 kts | 314° |
| 2026-05-06 01:58 | 11.85562 | 92.52183 | 31857 ft | 516 kts | 313° |
| 2026-05-06 01:58 | 11.90462 | 92.46820 | 31859 ft | 517 kts | 313° |
| 2026-05-06 01:59 | 11.95333 | 92.41486 | 31858 ft | 517 kts | 313° |
| 2026-05-06 01:59 | 12.00237 | 92.36112 | 31860 ft | 516 kts | 313° |
| 2026-05-06 02:00 | 12.05135 | 92.30743 | 31866 ft | 516 kts | 313° |
| 2026-05-06 02:00 | 12.10050 | 92.25351 | 31862 ft | 522 kts | 313° |
| 2026-05-06 02:01 | 12.15015 | 92.19901 | 31859 ft | 523 kts | 313° |
| 2026-05-06 02:01 | 12.19966 | 92.14464 | 31861 ft | 524 kts | 313° |
| 2026-05-06 02:02 | 12.24930 | 92.09009 | 31859 ft | 521 kts | 313° |
| 2026-05-06 02:02 | 12.29871 | 92.03576 | 31858 ft | 520 kts | 313° |
| 2026-05-06 02:03 | 12.34789 | 91.98166 | 31859 ft | 523 kts | 313° |
| 2026-05-06 02:03 | 12.39693 | 91.92768 | 31859 ft | 520 kts | 313° |
| 2026-05-06 02:04 | 12.44631 | 91.87329 | 31861 ft | 522 kts | 312° |
| 2026-05-06 02:04 | 12.49575 | 91.81879 | 31861 ft | 522 kts | 312° |
| 2026-05-06 02:05 | 12.54516 | 91.76430 | 31862 ft | 522 kts | 312° |
| 2026-05-06 02:05 | 12.59429 | 91.71008 | 31861 ft | 522 kts | 312° |
| 2026-05-06 02:06 | 12.64360 | 91.65564 | 31862 ft | 521 kts | 312° |
| 2026-05-06 02:06 | 12.69285 | 91.60123 | 31863 ft | 522 kts | 312° |
| 2026-05-06 02:07 | 12.74209 | 91.54679 | 31861 ft | 519 kts | 312° |
| 2026-05-06 02:07 | 12.79119 | 91.49248 | 31861 ft | 519 kts | 311° |
| 2026-05-06 02:08 | 12.84025 | 91.43818 | 31862 ft | 519 kts | 311° |
| 2026-05-06 02:08 | 12.88938 | 91.38377 | 31862 ft | 520 kts | 311° |
| 2026-05-06 02:09 | 12.93839 | 91.32945 | 31862 ft | 518 kts | 311° |
| 2026-05-06 02:09 | 12.98714 | 91.27539 | 31863 ft | 519 kts | 311° |
| 2026-05-06 02:10 | 13.03616 | 91.22101 | 31858 ft | 519 kts | 311° |
| 2026-05-06 02:10 | 13.08522 | 91.16653 | 31865 ft | 519 kts | 311° |
| 2026-05-06 02:11 | 13.13418 | 91.11213 | 31866 ft | 519 kts | 311° |
| 2026-05-06 02:11 | 13.18288 | 91.05799 | 31862 ft | 519 kts | 311° |
| 2026-05-06 02:12 | 13.23183 | 91.00354 | 31864 ft | 519 kts | 311° |
| 2026-05-06 02:12 | 13.28078 | 90.94905 | 31864 ft | 519 kts | 311° |
| 2026-05-06 02:13 | 13.32970 | 90.89457 | 31864 ft | 519 kts | 311° |
| 2026-05-06 02:13 | 13.37862 | 90.84004 | 31866 ft | 519 kts | 311° |
| 2026-05-06 02:14 | 13.42759 | 90.78543 | 31865 ft | 519 kts | 311° |
| 2026-05-06 02:14 | 13.47651 | 90.73084 | 31865 ft | 519 kts | 311° |
| 2026-05-06 02:15 | 13.52509 | 90.67660 | 31864 ft | 517 kts | 311° |
| 2026-05-06 02:15 | 13.57375 | 90.62221 | 31863 ft | 517 kts | 311° |
| 2026-05-06 02:16 | 13.62244 | 90.56777 | 31865 ft | 517 kts | 311° |
| 2026-05-06 02:16 | 13.67115 | 90.51326 | 31864 ft | 517 kts | 311° |
| 2026-05-06 02:17 | 13.71980 | 90.45880 | 31866 ft | 517 kts | 311° |
| 2026-05-06 02:17 | 13.76851 | 90.40422 | 31865 ft | 517 kts | 311° |
| 2026-05-06 02:18 | 13.81712 | 90.34972 | 31865 ft | 515 kts | 311° |
| 2026-05-06 02:18 | 13.86546 | 90.29550 | 31869 ft | 514 kts | 311° |
| 2026-05-06 02:19 | 13.91383 | 90.24119 | 31863 ft | 514 kts | 311° |
| 2026-05-06 02:19 | 13.96190 | 90.18719 | 31865 ft | 514 kts | 311° |
| 2026-05-06 02:20 | 14.03441 | 90.10567 | 31868 ft | 514 kts | 311° |
| 2026-05-06 02:21 | 14.08274 | 90.05129 | 31867 ft | 514 kts | 311° |
| 2026-05-06 02:21 | 14.12288 | 90.00609 | 31867 ft | 514 kts | 311° |
| 2026-05-06 02:22 | 14.17107 | 89.95180 | 31867 ft | 512 kts | 311° |
| 2026-05-06 02:22 | 14.21916 | 89.89759 | 31870 ft | 512 kts | 311° |
| 2026-05-06 02:23 | 14.26715 | 89.84344 | 31867 ft | 511 kts | 310° |
| 2026-05-06 02:23 | 14.31521 | 89.78919 | 31865 ft | 512 kts | 310° |
| 2026-05-06 02:24 | 14.36314 | 89.73504 | 31872 ft | 512 kts | 310° |
| 2026-05-06 02:24 | 14.41077 | 89.68120 | 31871 ft | 512 kts | 310° |
| 2026-05-06 02:25 | 14.45881 | 89.62685 | 31868 ft | 512 kts | 310° |
| 2026-05-06 02:25 | 14.50676 | 89.57257 | 31871 ft | 512 kts | 310° |
| 2026-05-06 02:26 | 14.55485 | 89.51808 | 32304 ft | 514 kts | 310° |
| 2026-05-06 02:26 | 14.57887 | 89.49086 | 32761 ft | 512 kts | 310° |
| 2026-05-06 02:26 | 14.60282 | 89.46372 | 33187 ft | 510 kts | 310° |
| 2026-05-06 02:26 | 14.62668 | 89.43665 | 33619 ft | 509 kts | 310° |
| 2026-05-06 02:27 | 14.65050 | 89.40964 | 33840 ft | 507 kts | 310° |
| 2026-05-06 02:27 | 14.69789 | 89.35587 | 33870 ft | 505 kts | 310° |
| 2026-05-06 02:28 | 14.74495 | 89.30251 | 33870 ft | 506 kts | 310° |
| 2026-05-06 02:28 | 14.79394 | 89.25022 | 33870 ft | 506 kts | 312° |
| 2026-05-06 02:29 | 14.84329 | 89.19821 | 33870 ft | 506 kts | 311° |
| 2026-05-06 02:29 | 14.89248 | 89.14593 | 33872 ft | 507 kts | 311° |
| 2026-05-06 02:30 | 14.94154 | 89.09360 | 33881 ft | 507 kts | 311° |
| 2026-05-06 02:30 | 14.99062 | 89.04119 | 33868 ft | 507 kts | 311° |
| 2026-05-06 02:31 | 15.03975 | 88.98869 | 33868 ft | 508 kts | 311° |
| 2026-05-06 02:31 | 15.08887 | 88.93618 | 33870 ft | 508 kts | 311° |
| 2026-05-06 02:32 | 15.13807 | 88.88353 | 33873 ft | 508 kts | 311° |
| 2026-05-06 02:32 | 15.18692 | 88.83123 | 33872 ft | 508 kts | 311° |
| 2026-05-06 02:33 | 15.23602 | 88.77862 | 33872 ft | 508 kts | 311° |
| 2026-05-06 02:33 | 15.25269 | 88.76076 | 33873 ft | 508 kts | 311° |
| 2026-05-06 02:34 | 15.33422 | 88.67329 | 33870 ft | 508 kts | 311° |
| 2026-05-06 02:34 | 15.38322 | 88.62068 | 33872 ft | 508 kts | 311° |
| 2026-05-06 02:35 | 15.43230 | 88.56795 | 33872 ft | 508 kts | 311° |
| 2026-05-06 02:35 | 15.48132 | 88.51523 | 33873 ft | 508 kts | 311° |
| 2026-05-06 02:36 | 15.53030 | 88.46252 | 33880 ft | 507 kts | 312° |
| 2026-05-06 02:36 | 15.57916 | 88.40991 | 33886 ft | 506 kts | 312° |
| 2026-05-06 02:37 | 15.62774 | 88.35755 | 33876 ft | 505 kts | 312° |
| 2026-05-06 02:37 | 15.67634 | 88.30514 | 33897 ft | 502 kts | 312° |
| 2026-05-06 02:38 | 15.72473 | 88.25292 | 33880 ft | 501 kts | 312° |
| 2026-05-06 02:38 | 15.77286 | 88.20094 | 33870 ft | 499 kts | 312° |
| 2026-05-06 02:39 | 15.82092 | 88.14899 | 33860 ft | 498 kts | 312° |
| 2026-05-06 02:39 | 15.86895 | 88.09704 | 33856 ft | 498 kts | 312° |
| 2026-05-06 02:40 | 15.91658 | 88.04549 | 33864 ft | 498 kts | 311° |
| 2026-05-06 02:40 | 15.96454 | 87.99354 | 33864 ft | 498 kts | 311° |
| 2026-05-06 02:41 | 16.01251 | 87.94154 | 33865 ft | 498 kts | 311° |
| 2026-05-06 02:41 | 16.06042 | 87.88956 | 33873 ft | 498 kts | 311° |
| 2026-05-06 02:42 | 16.10844 | 87.83744 | 33877 ft | 499 kts | 311° |
| 2026-05-06 02:42 | 16.15614 | 87.78561 | 33880 ft | 499 kts | 311° |
| 2026-05-06 02:43 | 16.20415 | 87.73341 | 33884 ft | 499 kts | 311° |
| 2026-05-06 02:43 | 16.25219 | 87.68114 | 33866 ft | 500 kts | 311° |
| 2026-05-06 02:44 | 16.30026 | 87.62880 | 33874 ft | 500 kts | 311° |
| 2026-05-06 02:44 | 16.34792 | 87.57687 | 33866 ft | 501 kts | 311° |
| 2026-05-06 02:45 | 16.39605 | 87.52437 | 33864 ft | 502 kts | 311° |
| 2026-05-06 02:45 | 16.44432 | 87.47170 | 33873 ft | 503 kts | 311° |
| 2026-05-06 02:46 | 16.49261 | 87.41895 | 33878 ft | 503 kts | 311° |
| 2026-05-06 02:46 | 16.54098 | 87.36608 | 33883 ft | 504 kts | 311° |
| 2026-05-06 02:47 | 16.58903 | 87.31353 | 33887 ft | 504 kts | 310° |
| 2026-05-06 02:47 | 16.63732 | 87.26066 | 33889 ft | 503 kts | 310° |
| 2026-05-06 02:48 | 16.68569 | 87.20767 | 33889 ft | 503 kts | 310° |
| 2026-05-06 02:48 | 16.73386 | 87.15488 | 33886 ft | 502 kts | 310° |
| 2026-05-06 02:49 | 16.78212 | 87.10284 | 33879 ft | 501 kts | 311° |
| 2026-05-06 02:49 | 16.83095 | 87.05091 | 33870 ft | 500 kts | 311° |
| 2026-05-06 02:50 | 16.87959 | 86.99899 | 33867 ft | 500 kts | 311° |
| 2026-05-06 02:50 | 16.92823 | 86.94692 | 33863 ft | 500 kts | 311° |
| 2026-05-06 02:51 | 16.97677 | 86.89491 | 33854 ft | 500 kts | 311° |
| 2026-05-06 02:51 | 17.02534 | 86.84284 | 33872 ft | 501 kts | 311° |
| 2026-05-06 02:52 | 17.07397 | 86.79065 | 33878 ft | 500 kts | 310° |
| 2026-05-06 02:52 | 17.12251 | 86.73852 | 33874 ft | 500 kts | 310° |
| 2026-05-06 02:53 | 17.17079 | 86.68663 | 33871 ft | 500 kts | 310° |
| 2026-05-06 02:53 | 17.21927 | 86.63448 | 33871 ft | 500 kts | 310° |
| 2026-05-06 02:54 | 17.26775 | 86.58229 | 33870 ft | 500 kts | 310° |
| 2026-05-06 02:54 | 17.31618 | 86.53010 | 33862 ft | 500 kts | 310° |
| 2026-05-06 02:55 | 17.36460 | 86.47790 | 33864 ft | 500 kts | 310° |
| 2026-05-06 02:55 | 17.41313 | 86.42553 | 33877 ft | 500 kts | 310° |
| 2026-05-06 02:56 | 17.46131 | 86.37349 | 33875 ft | 500 kts | 310° |
| 2026-05-06 02:56 | 17.50970 | 86.32119 | 33872 ft | 500 kts | 310° |
| 2026-05-06 02:57 | 17.55807 | 86.26886 | 33873 ft | 500 kts | 310° |
| 2026-05-06 02:57 | 17.60644 | 86.21649 | 33871 ft | 500 kts | 310° |
| 2026-05-06 02:58 | 17.65476 | 86.16413 | 33869 ft | 499 kts | 310° |
| 2026-05-06 02:58 | 17.70302 | 86.11180 | 33871 ft | 499 kts | 310° |
| 2026-05-06 02:59 | 17.75121 | 86.05950 | 33900 ft | 497 kts | 310° |
| 2026-05-06 02:59 | 17.79920 | 86.00737 | 33889 ft | 496 kts | 310° |
| 2026-05-06 03:00 | 17.84677 | 85.95566 | 33878 ft | 494 kts | 310° |
| 2026-05-06 03:00 | 17.89445 | 85.90377 | 33867 ft | 494 kts | 310° |
| 2026-05-06 03:01 | 17.94208 | 85.85190 | 33857 ft | 493 kts | 310° |
| 2026-05-06 03:01 | 17.98970 | 85.80001 | 33852 ft | 493 kts | 310° |
| 2026-05-06 03:02 | 18.03730 | 85.74809 | 33858 ft | 493 kts | 310° |
| 2026-05-06 03:02 | 18.08465 | 85.69640 | 33867 ft | 493 kts | 310° |
| 2026-05-06 03:03 | 18.13227 | 85.64436 | 33882 ft | 493 kts | 310° |
| 2026-05-06 03:03 | 18.17976 | 85.59244 | 33885 ft | 494 kts | 310° |
| 2026-05-06 03:04 | 18.22740 | 85.54030 | 33868 ft | 494 kts | 310° |
| 2026-05-06 03:04 | 18.27503 | 85.48813 | 33884 ft | 494 kts | 310° |
| 2026-05-06 03:05 | 18.32267 | 85.43591 | 33883 ft | 494 kts | 310° |
| 2026-05-06 03:05 | 18.36948 | 85.38455 | 33883 ft | 494 kts | 310° |
| 2026-05-06 03:06 | 18.41719 | 85.33216 | 33885 ft | 495 kts | 310° |
| 2026-05-06 03:06 | 18.46480 | 85.27983 | 33888 ft | 495 kts | 310° |
| 2026-05-06 03:07 | 18.51244 | 85.22743 | 33878 ft | 495 kts | 310° |
| 2026-05-06 03:07 | 18.56011 | 85.17495 | 33878 ft | 495 kts | 310° |
| 2026-05-06 03:08 | 18.60766 | 85.12256 | 33879 ft | 494 kts | 310° |
| 2026-05-06 03:08 | 18.65495 | 85.07041 | 33879 ft | 494 kts | 310° |
| 2026-05-06 03:09 | 18.70250 | 85.01794 | 33876 ft | 494 kts | 310° |
| 2026-05-06 03:09 | 18.75001 | 84.96550 | 33875 ft | 494 kts | 310° |
| 2026-05-06 03:10 | 18.79754 | 84.91334 | 33873 ft | 495 kts | 310° |
| 2026-05-06 03:10 | 18.83724 | 84.86979 | 33874 ft | 495 kts | 310° |
| 2026-05-06 03:11 | 18.88474 | 84.81727 | 33876 ft | 495 kts | 310° |
| 2026-05-06 03:11 | 18.93222 | 84.76456 | 33883 ft | 495 kts | 310° |
| 2026-05-06 03:12 | 18.97964 | 84.71192 | 33877 ft | 495 kts | 310° |
| 2026-05-06 03:12 | 19.02712 | 84.65920 | 33878 ft | 495 kts | 310° |
| 2026-05-06 03:13 | 19.07464 | 84.60639 | 33884 ft | 495 kts | 310° |
| 2026-05-06 03:13 | 19.12176 | 84.55396 | 33884 ft | 495 kts | 310° |
| 2026-05-06 03:14 | 19.16929 | 84.50104 | 33891 ft | 495 kts | 310° |
| 2026-05-06 03:14 | 19.21675 | 84.44815 | 33895 ft | 495 kts | 310° |
| 2026-05-06 03:15 | 19.26415 | 84.39527 | 33896 ft | 495 kts | 310° |
| 2026-05-06 03:15 | 19.31162 | 84.34225 | 33906 ft | 496 kts | 310° |
| 2026-05-06 03:16 | 19.35877 | 84.28957 | 33910 ft | 496 kts | 310° |
| 2026-05-06 03:16 | 19.40624 | 84.23649 | 33910 ft | 496 kts | 309° |
| 2026-05-06 03:17 | 19.45399 | 84.18364 | 33904 ft | 496 kts | 310° |
| 2026-05-06 03:17 | 19.50260 | 84.13175 | 33906 ft | 496 kts | 311° |
| 2026-05-06 03:18 | 19.55083 | 84.08015 | 33894 ft | 494 kts | 310° |
| 2026-05-06 03:18 | 19.59903 | 84.02827 | 33895 ft | 493 kts | 310° |
| 2026-05-06 03:19 | 19.64723 | 83.97626 | 33895 ft | 494 kts | 310° |
| 2026-05-06 03:19 | 19.69551 | 83.92414 | 33906 ft | 496 kts | 310° |
| 2026-05-06 03:20 | 19.76788 | 83.84597 | 33934 ft | 494 kts | 310° |
| 2026-05-06 03:20 | 19.81602 | 83.79390 | 33926 ft | 493 kts | 310° |
| 2026-05-06 03:21 | 19.86402 | 83.74193 | 33919 ft | 492 kts | 310° |
| 2026-05-06 03:21 | 19.91153 | 83.69046 | 33905 ft | 491 kts | 310° |
| 2026-05-06 03:22 | 19.95930 | 83.63864 | 33891 ft | 491 kts | 310° |
| 2026-05-06 03:22 | 20.00709 | 83.58677 | 33894 ft | 490 kts | 310° |
| 2026-05-06 03:23 | 20.05481 | 83.53491 | 33914 ft | 490 kts | 310° |
| 2026-05-06 03:23 | 20.10230 | 83.48329 | 33898 ft | 489 kts | 310° |
| 2026-05-06 03:24 | 20.14979 | 83.43159 | 33896 ft | 488 kts | 310° |
| 2026-05-06 03:24 | 20.19715 | 83.37998 | 33883 ft | 487 kts | 310° |
| 2026-05-06 03:25 | 20.24416 | 83.32871 | 33882 ft | 486 kts | 310° |
| 2026-05-06 03:25 | 20.29141 | 83.27713 | 33884 ft | 486 kts | 310° |
| 2026-05-06 03:26 | 20.33827 | 83.22593 | 33884 ft | 486 kts | 310° |
| 2026-05-06 03:26 | 20.38553 | 83.17425 | 33891 ft | 487 kts | 310° |
| 2026-05-06 03:27 | 20.43282 | 83.12249 | 33894 ft | 486 kts | 310° |
| 2026-05-06 03:27 | 20.47971 | 83.07111 | 33882 ft | 486 kts | 310° |
| 2026-05-06 03:28 | 20.52688 | 83.01938 | 33886 ft | 486 kts | 310° |
| 2026-05-06 03:28 | 20.57394 | 82.96773 | 33882 ft | 486 kts | 310° |
| 2026-05-06 03:29 | 20.62100 | 82.91596 | 33896 ft | 485 kts | 310° |
| 2026-05-06 03:29 | 20.66790 | 82.86418 | 33899 ft | 485 kts | 310° |
| 2026-05-06 03:30 | 20.71479 | 82.81240 | 33917 ft | 485 kts | 310° |
| 2026-05-06 03:30 | 20.76136 | 82.76094 | 33910 ft | 484 kts | 310° |
| 2026-05-06 03:31 | 20.80810 | 82.70924 | 33892 ft | 483 kts | 310° |
| 2026-05-06 03:31 | 20.85472 | 82.65764 | 33895 ft | 482 kts | 309° |
| 2026-05-06 03:32 | 20.90127 | 82.60604 | 33894 ft | 482 kts | 309° |
| 2026-05-06 03:32 | 20.94794 | 82.55458 | 33900 ft | 482 kts | 310° |
| 2026-05-06 03:33 | 20.99475 | 82.50310 | 33901 ft | 482 kts | 310° |
| 2026-05-06 03:33 | 21.04144 | 82.45165 | 33906 ft | 482 kts | 310° |
| 2026-05-06 03:34 | 21.08822 | 82.40002 | 33912 ft | 483 kts | 310° |
| 2026-05-06 03:34 | 21.13389 | 82.34958 | 33917 ft | 482 kts | 310° |
| 2026-05-06 03:35 | 21.18063 | 82.29790 | 33914 ft | 482 kts | 310° |
| 2026-05-06 03:35 | 21.22729 | 82.24626 | 33911 ft | 482 kts | 309° |
| 2026-05-06 03:36 | 21.27404 | 82.19447 | 33911 ft | 482 kts | 309° |
| 2026-05-06 03:36 | 21.32071 | 82.14273 | 33922 ft | 482 kts | 309° |
| 2026-05-06 03:37 | 21.36670 | 82.09167 | 33917 ft | 482 kts | 309° |
| 2026-05-06 03:37 | 21.41320 | 82.04001 | 33911 ft | 481 kts | 309° |
| 2026-05-06 03:38 | 21.45958 | 81.98846 | 33910 ft | 480 kts | 310° |
| 2026-05-06 03:38 | 21.50661 | 81.93800 | 33905 ft | 481 kts | 310° |
| 2026-05-06 03:39 | 21.55408 | 81.88743 | 33907 ft | 480 kts | 310° |
| 2026-05-06 03:39 | 21.60146 | 81.83667 | 33911 ft | 480 kts | 310° |
| 2026-05-06 03:40 | 21.64868 | 81.78594 | 33916 ft | 480 kts | 310° |
| 2026-05-06 03:40 | 21.69574 | 81.73533 | 33916 ft | 480 kts | 310° |
| 2026-05-06 03:41 | 21.74291 | 81.68455 | 33911 ft | 480 kts | 310° |
| 2026-05-06 03:41 | 21.79013 | 81.63366 | 33912 ft | 479 kts | 310° |
| 2026-05-06 03:42 | 21.83622 | 81.58270 | 33913 ft | 478 kts | 309° |
| 2026-05-06 03:42 | 21.88246 | 81.53109 | 33910 ft | 479 kts | 309° |
| 2026-05-06 03:43 | 21.92883 | 81.47948 | 33919 ft | 479 kts | 309° |
| 2026-05-06 03:43 | 21.97482 | 81.42760 | 33923 ft | 479 kts | 309° |
| 2026-05-06 03:44 | 22.02064 | 81.37545 | 33922 ft | 479 kts | 309° |
| 2026-05-06 03:44 | 22.06634 | 81.32352 | 33929 ft | 479 kts | 309° |
| 2026-05-06 03:45 | 22.11228 | 81.27135 | 33928 ft | 479 kts | 309° |
| 2026-05-06 03:45 | 22.15841 | 81.21995 | 33927 ft | 480 kts | 309° |
| 2026-05-06 03:46 | 22.20494 | 81.16818 | 33938 ft | 480 kts | 309° |
| 2026-05-06 03:46 | 22.25135 | 81.11636 | 33944 ft | 480 kts | 309° |
| 2026-05-06 03:47 | 22.29771 | 81.06451 | 33949 ft | 479 kts | 309° |
| 2026-05-06 03:47 | 22.34397 | 81.01271 | 33945 ft | 479 kts | 309° |
| 2026-05-06 03:48 | 22.38930 | 80.96190 | 33943 ft | 479 kts | 309° |
| 2026-05-06 03:48 | 22.43522 | 80.91038 | 33938 ft | 478 kts | 309° |
| 2026-05-06 03:49 | 22.48125 | 80.85870 | 33930 ft | 477 kts | 309° |
| 2026-05-06 03:49 | 22.52718 | 80.80707 | 33947 ft | 477 kts | 309° |
| 2026-05-06 03:50 | 22.57317 | 80.75530 | 33937 ft | 477 kts | 309° |
| 2026-05-06 03:50 | 22.61916 | 80.70349 | 33930 ft | 477 kts | 309° |
| 2026-05-06 03:51 | 22.66504 | 80.65175 | 33932 ft | 477 kts | 309° |
| 2026-05-06 03:51 | 22.71092 | 80.59996 | 33933 ft | 477 kts | 309° |
| 2026-05-06 03:52 | 22.75686 | 80.54804 | 33932 ft | 477 kts | 309° |
| 2026-05-06 03:52 | 22.80240 | 80.49652 | 33935 ft | 477 kts | 309° |
| 2026-05-06 03:53 | 22.84832 | 80.44454 | 33940 ft | 477 kts | 309° |
| 2026-05-06 03:53 | 22.89412 | 80.39263 | 33939 ft | 476 kts | 309° |
| 2026-05-06 03:54 | 22.93984 | 80.34074 | 33936 ft | 476 kts | 309° |
| 2026-05-06 03:54 | 22.98555 | 80.28881 | 33931 ft | 475 kts | 309° |
| 2026-05-06 03:55 | 23.03125 | 80.23684 | 33930 ft | 475 kts | 309° |
| 2026-05-06 03:55 | 23.07687 | 80.18492 | 33933 ft | 475 kts | 309° |
| 2026-05-06 03:56 | 23.12244 | 80.13298 | 33978 ft | 475 kts | 309° |
| 2026-05-06 03:56 | 23.16777 | 80.08093 | 33960 ft | 472 kts | 307° |
| 2026-05-06 03:57 | 23.20602 | 80.02421 | 33940 ft | 465 kts | 297° |
| 2026-05-06 03:57 | 23.23897 | 79.96379 | 33932 ft | 464 kts | 298° |
| 2026-05-06 03:58 | 23.27216 | 79.90369 | 33923 ft | 463 kts | 297° |
| 2026-05-06 03:58 | 23.30511 | 79.84380 | 33913 ft | 462 kts | 297° |
| 2026-05-06 03:59 | 23.33223 | 79.79436 | 33913 ft | 461 kts | 297° |
| 2026-05-06 03:59 | 23.37043 | 79.72463 | 33916 ft | 461 kts | 298° |
| 2026-05-06 04:00 | 23.39786 | 79.67450 | 33918 ft | 461 kts | 297° |
| 2026-05-06 04:00 | 23.43067 | 79.61445 | 33923 ft | 461 kts | 297° |
| 2026-05-06 04:01 | 23.46328 | 79.55473 | 33918 ft | 462 kts | 297° |
| 2026-05-06 04:01 | 23.49609 | 79.49456 | 33917 ft | 462 kts | 297° |
| 2026-05-06 04:02 | 23.52887 | 79.43437 | 33913 ft | 462 kts | 297° |
| 2026-05-06 04:02 | 23.56167 | 79.37407 | 33908 ft | 463 kts | 297° |
| 2026-05-06 04:03 | 23.59447 | 79.31371 | 33910 ft | 463 kts | 297° |
| 2026-05-06 04:03 | 23.62733 | 79.25315 | 33924 ft | 464 kts | 297° |
| 2026-05-06 04:04 | 23.66018 | 79.19255 | 33930 ft | 464 kts | 297° |
| 2026-05-06 04:04 | 23.69279 | 79.13231 | 33953 ft | 464 kts | 297° |
| 2026-05-06 04:05 | 23.72563 | 79.07157 | 33928 ft | 465 kts | 297° |
| 2026-05-06 04:05 | 23.75849 | 79.01073 | 33926 ft | 464 kts | 298° |
| 2026-05-06 04:06 | 23.79122 | 78.95006 | 33932 ft | 463 kts | 298° |
| 2026-05-06 04:06 | 23.82388 | 78.88943 | 33923 ft | 463 kts | 298° |
| 2026-05-06 04:07 | 23.85648 | 78.82883 | 33924 ft | 462 kts | 298° |
| 2026-05-06 04:07 | 23.88885 | 78.76859 | 33921 ft | 462 kts | 298° |
| 2026-05-06 04:08 | 23.92135 | 78.70804 | 33919 ft | 462 kts | 298° |
| 2026-05-06 04:08 | 23.95381 | 78.64747 | 33938 ft | 461 kts | 298° |
| 2026-05-06 04:09 | 23.98620 | 78.58698 | 33955 ft | 460 kts | 298° |
| 2026-05-06 04:09 | 24.01838 | 78.52694 | 33943 ft | 458 kts | 299° |
| 2026-05-06 04:10 | 24.05105 | 78.46750 | 33933 ft | 457 kts | 299° |
| 2026-05-06 04:10 | 24.08385 | 78.40798 | 33922 ft | 456 kts | 299° |
| 2026-05-06 04:11 | 24.11653 | 78.34842 | 33916 ft | 455 kts | 299° |
| 2026-05-06 04:11 | 24.14905 | 78.28899 | 33910 ft | 455 kts | 299° |
| 2026-05-06 04:12 | 24.18154 | 78.22956 | 33907 ft | 454 kts | 299° |
| 2026-05-06 04:12 | 24.21377 | 78.17054 | 33906 ft | 454 kts | 299° |
| 2026-05-06 04:13 | 24.24619 | 78.11108 | 33918 ft | 455 kts | 299° |
| 2026-05-06 04:13 | 24.27865 | 78.05149 | 33930 ft | 455 kts | 299° |
| 2026-05-06 04:14 | 24.31111 | 77.99182 | 33941 ft | 455 kts | 299° |
| 2026-05-06 04:14 | 24.34355 | 77.93210 | 33941 ft | 455 kts | 299° |
| 2026-05-06 04:15 | 24.37595 | 77.87240 | 33940 ft | 455 kts | 299° |
| 2026-05-06 04:15 | 24.40805 | 77.81318 | 33933 ft | 454 kts | 299° |
| 2026-05-06 04:16 | 24.44032 | 77.75357 | 33934 ft | 454 kts | 299° |
| 2026-05-06 04:16 | 24.47231 | 77.69439 | 33928 ft | 454 kts | 299° |
| 2026-05-06 04:17 | 24.50454 | 77.63472 | 33937 ft | 454 kts | 299° |
| 2026-05-06 04:17 | 24.53669 | 77.57510 | 33937 ft | 454 kts | 299° |
| 2026-05-06 04:18 | 24.56880 | 77.51549 | 33931 ft | 453 kts | 299° |
| 2026-05-06 04:18 | 24.60087 | 77.45589 | 33932 ft | 452 kts | 299° |
| 2026-05-06 04:19 | 24.63285 | 77.39636 | 33931 ft | 452 kts | 299° |
| 2026-05-06 04:19 | 24.66476 | 77.33691 | 33929 ft | 451 kts | 299° |
| 2026-05-06 04:20 | 24.69646 | 77.27778 | 33924 ft | 451 kts | 299° |
| 2026-05-06 04:20 | 24.72848 | 77.21891 | 33914 ft | 451 kts | 300° |
| 2026-05-06 04:21 | 24.76109 | 77.15987 | 33921 ft | 451 kts | 300° |
| 2026-05-06 04:21 | 24.79356 | 77.10081 | 33923 ft | 450 kts | 300° |
| 2026-05-06 04:22 | 24.82595 | 77.04174 | 33927 ft | 450 kts | 300° |
| 2026-05-06 04:23 | 24.87427 | 76.95342 | 33943 ft | 450 kts | 300° |
| 2026-05-06 04:23 | 24.90657 | 76.89431 | 33936 ft | 450 kts | 300° |
| 2026-05-06 04:24 | 24.93881 | 76.83523 | 33934 ft | 450 kts | 300° |
| 2026-05-06 04:24 | 24.97102 | 76.77613 | 33930 ft | 450 kts | 300° |
| 2026-05-06 04:25 | 25.00373 | 76.71733 | 33927 ft | 450 kts | 303° |
| 2026-05-06 04:25 | 25.04169 | 76.66246 | 33961 ft | 450 kts | 306° |
| 2026-05-06 04:26 | 25.07950 | 76.60803 | 33930 ft | 450 kts | 306° |
| 2026-05-06 04:26 | 25.11751 | 76.55324 | 33926 ft | 449 kts | 306° |
| 2026-05-06 04:27 | 25.15547 | 76.49850 | 33904 ft | 449 kts | 306° |
| 2026-05-06 04:27 | 25.19331 | 76.44390 | 33919 ft | 447 kts | 306° |
| 2026-05-06 04:28 | 25.23111 | 76.38929 | 33918 ft | 447 kts | 306° |
| 2026-05-06 04:28 | 25.26887 | 76.33466 | 33911 ft | 447 kts | 306° |
| 2026-05-06 04:29 | 25.30632 | 76.28043 | 33949 ft | 447 kts | 306° |
| 2026-05-06 04:29 | 25.34391 | 76.22593 | 33928 ft | 447 kts | 306° |
| 2026-05-06 04:30 | 25.38168 | 76.17112 | 33927 ft | 447 kts | 306° |
| 2026-05-06 04:30 | 25.41933 | 76.11640 | 33925 ft | 446 kts | 306° |
| 2026-05-06 04:31 | 25.45686 | 76.06180 | 33922 ft | 446 kts | 306° |
| 2026-05-06 04:31 | 25.49442 | 76.00710 | 33918 ft | 445 kts | 306° |
| 2026-05-06 04:32 | 25.53190 | 75.95244 | 33916 ft | 445 kts | 306° |
| 2026-05-06 04:32 | 25.56931 | 75.89783 | 33919 ft | 445 kts | 306° |
| 2026-05-06 04:33 | 25.60645 | 75.84353 | 33932 ft | 445 kts | 306° |
| 2026-05-06 04:33 | 25.64377 | 75.78892 | 33926 ft | 444 kts | 306° |
| 2026-05-06 04:34 | 25.68102 | 75.73436 | 33938 ft | 443 kts | 306° |
| 2026-05-06 04:34 | 25.71819 | 75.67983 | 33925 ft | 442 kts | 306° |
| 2026-05-06 04:35 | 25.75524 | 75.62542 | 33917 ft | 442 kts | 306° |
| 2026-05-06 04:35 | 25.79229 | 75.57095 | 33914 ft | 442 kts | 306° |
| 2026-05-06 04:36 | 25.82884 | 75.51714 | 33918 ft | 442 kts | 306° |
| 2026-05-06 04:36 | 25.86590 | 75.46254 | 33933 ft | 442 kts | 306° |
| 2026-05-06 04:37 | 25.90133 | 75.40689 | 33929 ft | 441 kts | 303° |
| 2026-05-06 04:37 | 25.93577 | 75.35059 | 33933 ft | 440 kts | 304° |
| 2026-05-06 04:38 | 25.97023 | 75.29430 | 33927 ft | 440 kts | 304° |
| 2026-05-06 04:38 | 26.00457 | 75.23805 | 33926 ft | 439 kts | 304° |
| 2026-05-06 04:39 | 26.03886 | 75.18177 | 33921 ft | 439 kts | 303° |
| 2026-05-06 04:39 | 26.07309 | 75.12552 | 33919 ft | 439 kts | 303° |
| 2026-05-06 04:40 | 26.10714 | 75.06950 | 33938 ft | 439 kts | 303° |
| 2026-05-06 04:40 | 26.14128 | 75.01325 | 33939 ft | 438 kts | 303° |
| 2026-05-06 04:41 | 26.17499 | 74.95683 | 33934 ft | 437 kts | 301° |
| 2026-05-06 04:41 | 26.20428 | 74.89783 | 33923 ft | 436 kts | 299° |
| 2026-05-06 04:42 | 26.23367 | 74.83866 | 33920 ft | 436 kts | 299° |
| 2026-05-06 04:42 | 26.26297 | 74.77956 | 33919 ft | 435 kts | 299° |
| 2026-05-06 04:43 | 26.29219 | 74.72049 | 33918 ft | 435 kts | 299° |
| 2026-05-06 04:43 | 26.32137 | 74.66139 | 33918 ft | 435 kts | 299° |
| 2026-05-06 04:44 | 26.35020 | 74.60291 | 33924 ft | 436 kts | 299° |
| 2026-05-06 04:44 | 26.37939 | 74.54363 | 33925 ft | 436 kts | 299° |
| 2026-05-06 04:45 | 26.40850 | 74.48445 | 33916 ft | 436 kts | 299° |
| 2026-05-06 04:45 | 26.43757 | 74.42526 | 33917 ft | 436 kts | 299° |
| 2026-05-06 04:46 | 26.46666 | 74.36595 | 33918 ft | 435 kts | 299° |
| 2026-05-06 04:46 | 26.49564 | 74.30678 | 33910 ft | 435 kts | 299° |
| 2026-05-06 04:47 | 26.52463 | 74.24752 | 33901 ft | 434 kts | 299° |
| 2026-05-06 04:47 | 26.55355 | 74.18831 | 33900 ft | 434 kts | 299° |
| 2026-05-06 04:48 | 26.58252 | 74.12971 | 33916 ft | 434 kts | 299° |
| 2026-05-06 04:48 | 26.61194 | 74.07062 | 33903 ft | 434 kts | 299° |
| 2026-05-06 04:49 | 26.64122 | 74.01160 | 33902 ft | 434 kts | 299° |
| 2026-05-06 04:49 | 26.66553 | 73.96250 | 33903 ft | 433 kts | 299° |
| 2026-05-06 04:50 | 26.69945 | 73.89388 | 33900 ft | 433 kts | 299° |
| 2026-05-06 04:50 | 26.72382 | 73.84450 | 33899 ft | 433 kts | 299° |
| 2026-05-06 04:51 | 26.75286 | 73.78560 | 33892 ft | 432 kts | 299° |
| 2026-05-06 04:51 | 26.78191 | 73.72660 | 33892 ft | 432 kts | 299° |
| 2026-05-06 04:52 | 26.81094 | 73.66756 | 33896 ft | 433 kts | 299° |
| 2026-05-06 04:52 | 26.83974 | 73.60891 | 33901 ft | 433 kts | 299° |
| 2026-05-06 04:53 | 26.86877 | 73.54969 | 33894 ft | 433 kts | 299° |
| 2026-05-06 04:53 | 26.89773 | 73.49054 | 33891 ft | 433 kts | 299° |
| 2026-05-06 04:54 | 26.92664 | 73.43143 | 33888 ft | 432 kts | 299° |
| 2026-05-06 04:54 | 26.95553 | 73.37227 | 33883 ft | 432 kts | 299° |
| 2026-05-06 04:55 | 26.98395 | 73.31343 | 33880 ft | 432 kts | 298° |
| 2026-05-06 04:55 | 27.01236 | 73.25402 | 33881 ft | 431 kts | 298° |
| 2026-05-06 04:56 | 27.04076 | 73.19472 | 33874 ft | 431 kts | 298° |
| 2026-05-06 04:56 | 27.06916 | 73.13537 | 33877 ft | 432 kts | 298° |
| 2026-05-06 04:57 | 27.09753 | 73.07599 | 33875 ft | 432 kts | 298° |
| 2026-05-06 04:57 | 27.12595 | 73.01643 | 33874 ft | 432 kts | 298° |
| 2026-05-06 04:58 | 27.15413 | 72.95727 | 33876 ft | 432 kts | 298° |
| 2026-05-06 04:58 | 27.18248 | 72.89771 | 33873 ft | 432 kts | 298° |
| 2026-05-06 04:59 | 27.21076 | 72.83818 | 33871 ft | 431 kts | 298° |
| 2026-05-06 04:59 | 27.23898 | 72.77870 | 33866 ft | 431 kts | 298° |
| 2026-05-06 05:00 | 27.26718 | 72.71920 | 33866 ft | 431 kts | 298° |
| 2026-05-06 05:00 | 27.29536 | 72.65962 | 33870 ft | 431 kts | 298° |
| 2026-05-06 05:01 | 27.32334 | 72.60041 | 33847 ft | 431 kts | 298° |
| 2026-05-06 05:01 | 27.35144 | 72.54085 | 33860 ft | 431 kts | 298° |
| 2026-05-06 05:02 | 27.37950 | 72.48129 | 33860 ft | 431 kts | 298° |
| 2026-05-06 05:02 | 27.40756 | 72.42165 | 33860 ft | 431 kts | 298° |
| 2026-05-06 05:03 | 27.43560 | 72.36198 | 33859 ft | 431 kts | 298° |
| 2026-05-06 05:03 | 27.46360 | 72.30229 | 33860 ft | 431 kts | 298° |
| 2026-05-06 05:04 | 27.49154 | 72.24266 | 33845 ft | 431 kts | 298° |
| 2026-05-06 05:04 | 27.51952 | 72.18286 | 33856 ft | 432 kts | 298° |
| 2026-05-06 05:05 | 27.54750 | 72.12296 | 33857 ft | 432 kts | 298° |
| 2026-05-06 05:05 | 27.57547 | 72.06301 | 33855 ft | 432 kts | 298° |
| 2026-05-06 05:06 | 27.60325 | 72.00338 | 33857 ft | 432 kts | 298° |
| 2026-05-06 05:06 | 27.63117 | 71.94335 | 33857 ft | 432 kts | 298° |
| 2026-05-06 05:07 | 27.65906 | 71.88330 | 33858 ft | 432 kts | 298° |
| 2026-05-06 05:07 | 27.68691 | 71.82327 | 33853 ft | 432 kts | 298° |
| 2026-05-06 05:08 | 27.71467 | 71.76335 | 33848 ft | 431 kts | 298° |
| 2026-05-06 05:08 | 27.74256 | 71.70304 | 34222 ft | 435 kts | 298° |
| 2026-05-06 05:08 | 27.75652 | 71.67282 | 34646 ft | 433 kts | 298° |
| 2026-05-06 05:09 | 27.77041 | 71.64274 | 35049 ft | 432 kts | 298° |
| 2026-05-06 05:09 | 27.78426 | 71.61272 | 35435 ft | 431 kts | 298° |
| 2026-05-06 05:09 | 27.79810 | 71.58268 | 35754 ft | 430 kts | 298° |
| 2026-05-06 05:10 | 27.82554 | 71.52309 | 35847 ft | 427 kts | 298° |
| 2026-05-06 05:10 | 27.85274 | 71.46398 | 35847 ft | 427 kts | 298° |
| 2026-05-06 05:11 | 27.88001 | 71.40441 | 35844 ft | 427 kts | 297° |
| 2026-05-06 05:11 | 27.90610 | 71.34430 | 35845 ft | 427 kts | 297° |
| 2026-05-06 05:12 | 27.93223 | 71.28383 | 35848 ft | 427 kts | 297° |
| 2026-05-06 05:12 | 27.95837 | 71.22363 | 35844 ft | 428 kts | 297° |
| 2026-05-06 05:13 | 27.98462 | 71.16319 | 35844 ft | 428 kts | 297° |
| 2026-05-06 05:13 | 28.01085 | 71.10270 | 35844 ft | 428 kts | 297° |
| 2026-05-06 05:14 | 28.03707 | 71.04213 | 35839 ft | 428 kts | 297° |
| 2026-05-06 05:14 | 28.06326 | 70.98155 | 35837 ft | 428 kts | 297° |
| 2026-05-06 05:15 | 28.08931 | 70.92122 | 35839 ft | 428 kts | 297° |
| 2026-05-06 05:15 | 28.11544 | 70.86057 | 35838 ft | 428 kts | 297° |
| 2026-05-06 05:16 | 28.14150 | 70.80003 | 35841 ft | 428 kts | 297° |
| 2026-05-06 05:16 | 28.16756 | 70.73939 | 35835 ft | 428 kts | 297° |
| 2026-05-06 05:17 | 28.19359 | 70.67873 | 35837 ft | 429 kts | 297° |
| 2026-05-06 05:17 | 28.21966 | 70.61785 | 35841 ft | 429 kts | 296° |
| 2026-05-06 05:18 | 28.24576 | 70.55686 | 35841 ft | 429 kts | 296° |
| 2026-05-06 05:18 | 28.27215 | 70.49506 | 35841 ft | 429 kts | 297° |
| 2026-05-06 05:19 | 28.29801 | 70.43441 | 35846 ft | 429 kts | 297° |
| 2026-05-06 05:19 | 28.32399 | 70.37342 | 35845 ft | 429 kts | 296° |
| 2026-05-06 05:20 | 28.35438 | 70.31545 | 35840 ft | 429 kts | 309° |
| 2026-05-06 05:20 | 28.40012 | 70.27186 | 35834 ft | 436 kts | 327° |
| 2026-05-06 05:21 | 28.45749 | 70.24751 | 35838 ft | 447 kts | 341° |
| 2026-05-06 05:21 | 28.51787 | 70.23068 | 35841 ft | 447 kts | 340° |
| 2026-05-06 05:22 | 28.57789 | 70.21366 | 35846 ft | 447 kts | 340° |
| 2026-05-06 05:22 | 28.63830 | 70.19656 | 35847 ft | 448 kts | 340° |
| 2026-05-06 05:23 | 28.69866 | 70.17947 | 35845 ft | 448 kts | 340° |
| 2026-05-06 05:23 | 28.78956 | 70.15372 | 35845 ft | 448 kts | 340° |
| 2026-05-06 05:24 | 28.84997 | 70.13658 | 35844 ft | 448 kts | 340° |
| 2026-05-06 05:24 | 28.91049 | 70.11938 | 35836 ft | 449 kts | 340° |
| 2026-05-06 05:25 | 28.97109 | 70.10214 | 35837 ft | 449 kts | 340° |
| 2026-05-06 05:25 | 29.03158 | 70.08491 | 35838 ft | 449 kts | 340° |
| 2026-05-06 05:26 | 29.09189 | 70.06772 | 35840 ft | 449 kts | 340° |
| 2026-05-06 05:26 | 29.15250 | 70.05042 | 35862 ft | 449 kts | 340° |
| 2026-05-06 05:27 | 29.21314 | 70.03308 | 35847 ft | 450 kts | 340° |
| 2026-05-06 05:27 | 29.27377 | 70.01573 | 35847 ft | 450 kts | 340° |
| 2026-05-06 05:28 | 29.33412 | 69.99844 | 35848 ft | 450 kts | 340° |
| 2026-05-06 05:28 | 29.39491 | 69.98100 | 35854 ft | 450 kts | 340° |
| 2026-05-06 05:29 | 29.45575 | 69.96351 | 35864 ft | 451 kts | 340° |
| 2026-05-06 05:29 | 29.51661 | 69.94601 | 35864 ft | 451 kts | 340° |
| 2026-05-06 05:30 | 29.57752 | 69.92847 | 35879 ft | 451 kts | 340° |
| 2026-05-06 05:30 | 29.63728 | 69.91124 | 35893 ft | 452 kts | 340° |
| 2026-05-06 05:31 | 29.69937 | 69.89334 | 35881 ft | 453 kts | 340° |
| 2026-05-06 05:31 | 29.76046 | 69.87570 | 35897 ft | 452 kts | 340° |
| 2026-05-06 05:32 | 29.82138 | 69.85806 | 35894 ft | 451 kts | 340° |
| 2026-05-06 05:32 | 29.87199 | 69.84338 | 35891 ft | 450 kts | 340° |
| 2026-05-06 05:33 | 29.94240 | 69.82295 | 35919 ft | 449 kts | 340° |
| 2026-05-06 05:33 | 29.99325 | 69.80818 | 35901 ft | 449 kts | 340° |
| 2026-05-06 05:34 | 30.05373 | 69.79060 | 35899 ft | 448 kts | 340° |
| 2026-05-06 05:34 | 30.11423 | 69.77298 | 35896 ft | 448 kts | 340° |
| 2026-05-06 05:35 | 30.17426 | 69.75547 | 35905 ft | 448 kts | 340° |
| 2026-05-06 05:35 | 30.23481 | 69.73780 | 35908 ft | 448 kts | 340° |
| 2026-05-06 05:36 | 30.29568 | 69.72131 | 35907 ft | 450 kts | 342° |
| 2026-05-06 05:36 | 30.35684 | 69.70692 | 35914 ft | 450 kts | 343° |
| 2026-05-06 05:37 | 30.41791 | 69.69224 | 35911 ft | 450 kts | 342° |
| 2026-05-06 05:37 | 30.47911 | 69.67725 | 35920 ft | 450 kts | 342° |
| 2026-05-06 05:38 | 30.54038 | 69.66219 | 35921 ft | 450 kts | 342° |
| 2026-05-06 05:38 | 30.60162 | 69.64712 | 35916 ft | 449 kts | 342° |
| 2026-05-06 05:39 | 30.66279 | 69.63205 | 35911 ft | 449 kts | 342° |
| 2026-05-06 05:39 | 30.72395 | 69.61697 | 35920 ft | 450 kts | 342° |
| 2026-05-06 05:40 | 30.78489 | 69.60192 | 35923 ft | 450 kts | 342° |
| 2026-05-06 05:40 | 30.84609 | 69.58678 | 35923 ft | 450 kts | 342° |
| 2026-05-06 05:41 | 30.90740 | 69.57159 | 35923 ft | 450 kts | 342° |
| 2026-05-06 05:41 | 30.96857 | 69.55643 | 35942 ft | 450 kts | 342° |
| 2026-05-06 05:42 | 31.02984 | 69.54121 | 35937 ft | 450 kts | 342° |
| 2026-05-06 05:42 | 31.09067 | 69.52610 | 35911 ft | 450 kts | 342° |
| 2026-05-06 05:43 | 31.15191 | 69.51086 | 35922 ft | 449 kts | 342° |
| 2026-05-06 05:43 | 31.21296 | 69.49564 | 35938 ft | 449 kts | 342° |
| 2026-05-06 05:44 | 31.27435 | 69.48032 | 35919 ft | 450 kts | 342° |
| 2026-05-06 05:44 | 31.33382 | 69.45984 | 35924 ft | 441 kts | 329° |
| 2026-05-06 05:45 | 31.38297 | 69.41850 | 35924 ft | 434 kts | 312° |
| 2026-05-06 05:45 | 31.42077 | 69.36409 | 35928 ft | 433 kts | 308° |
| 2026-05-06 05:46 | 31.45831 | 69.30893 | 35927 ft | 434 kts | 308° |
| 2026-05-06 05:46 | 31.49590 | 69.25354 | 35936 ft | 434 kts | 307° |
| 2026-05-06 05:47 | 31.53347 | 69.19793 | 35942 ft | 434 kts | 307° |
| 2026-05-06 05:47 | 31.57099 | 69.14231 | 35936 ft | 435 kts | 307° |
| 2026-05-06 05:48 | 31.60848 | 69.08664 | 35943 ft | 436 kts | 307° |
| 2026-05-06 05:48 | 31.64603 | 69.03081 | 35980 ft | 435 kts | 307° |
| 2026-05-06 05:49 | 31.68350 | 68.97559 | 35957 ft | 435 kts | 309° |
| 2026-05-06 05:49 | 31.72269 | 68.92130 | 35954 ft | 434 kts | 309° |
| 2026-05-06 05:50 | 31.76181 | 68.86704 | 35945 ft | 434 kts | 309° |
| 2026-05-06 05:50 | 31.80056 | 68.81284 | 35952 ft | 434 kts | 309° |
| 2026-05-06 05:51 | 31.83941 | 68.75832 | 35949 ft | 434 kts | 309° |
| 2026-05-06 05:51 | 31.87793 | 68.70416 | 35972 ft | 434 kts | 309° |
| 2026-05-06 05:52 | 31.91675 | 68.64952 | 35968 ft | 435 kts | 309° |
| 2026-05-06 05:52 | 31.95558 | 68.59480 | 35974 ft | 435 kts | 309° |
| 2026-05-06 05:53 | 31.99414 | 68.54037 | 35972 ft | 435 kts | 309° |
| 2026-05-06 05:53 | 32.03291 | 68.48557 | 35975 ft | 435 kts | 308° |
| 2026-05-06 05:54 | 32.07154 | 68.43087 | 35981 ft | 434 kts | 308° |
| 2026-05-06 05:54 | 32.11000 | 68.37636 | 35989 ft | 435 kts | 308° |
| 2026-05-06 05:55 | 32.14868 | 68.32144 | 35990 ft | 435 kts | 308° |
| 2026-05-06 05:55 | 32.18743 | 68.26636 | 35997 ft | 435 kts | 308° |
| 2026-05-06 05:56 | 32.22610 | 68.21132 | 35995 ft | 435 kts | 308° |
| 2026-05-06 05:56 | 32.26475 | 68.15620 | 35996 ft | 435 kts | 308° |
| 2026-05-06 05:57 | 32.30350 | 68.10086 | 35991 ft | 437 kts | 308° |
| 2026-05-06 05:57 | 32.34229 | 68.04540 | 35999 ft | 438 kts | 308° |
| 2026-05-06 05:58 | 32.38083 | 67.99019 | 36001 ft | 438 kts | 308° |
| 2026-05-06 05:58 | 32.41965 | 67.93451 | 36001 ft | 438 kts | 308° |
| 2026-05-06 05:59 | 32.45844 | 67.87879 | 35996 ft | 438 kts | 308° |
| 2026-05-06 05:59 | 32.49721 | 67.82302 | 35988 ft | 439 kts | 308° |
| 2026-05-06 06:00 | 32.53710 | 67.76805 | 35989 ft | 439 kts | 310° |
| 2026-05-06 06:00 | 32.57804 | 67.71416 | 35989 ft | 439 kts | 310° |
| 2026-05-06 06:01 | 32.61848 | 67.66034 | 35985 ft | 440 kts | 310° |
| 2026-05-06 06:01 | 32.65905 | 67.60600 | 35989 ft | 440 kts | 310° |
| 2026-05-06 06:02 | 32.69966 | 67.55147 | 35989 ft | 441 kts | 310° |
| 2026-05-06 06:02 | 32.74020 | 67.49697 | 35992 ft | 441 kts | 310° |
| 2026-05-06 06:03 | 32.78077 | 67.44234 | 35994 ft | 440 kts | 309° |
| 2026-05-06 06:03 | 32.81994 | 67.38674 | 36002 ft | 439 kts | 308° |
| 2026-05-06 06:04 | 32.85853 | 67.33107 | 36006 ft | 439 kts | 308° |
| 2026-05-06 06:04 | 32.89764 | 67.27494 | 36033 ft | 440 kts | 308° |
| 2026-05-06 06:05 | 32.93686 | 67.21876 | 36056 ft | 441 kts | 308° |
| 2026-05-06 06:05 | 32.97610 | 67.16246 | 36078 ft | 441 kts | 308° |
| 2026-05-06 06:06 | 33.01505 | 67.10647 | 36097 ft | 441 kts | 308° |
| 2026-05-06 06:06 | 33.05407 | 67.05029 | 36113 ft | 439 kts | 308° |
| 2026-05-06 06:07 | 33.09290 | 66.99432 | 36087 ft | 438 kts | 308° |
| 2026-05-06 06:07 | 33.13173 | 66.93831 | 36085 ft | 438 kts | 308° |
| 2026-05-06 06:08 | 33.17055 | 66.88217 | 36090 ft | 440 kts | 308° |
| 2026-05-06 06:08 | 33.20950 | 66.82575 | 36099 ft | 441 kts | 308° |
| 2026-05-06 06:09 | 33.24847 | 66.76924 | 36120 ft | 440 kts | 308° |
| 2026-05-06 06:09 | 33.28724 | 66.71292 | 36078 ft | 442 kts | 308° |
| 2026-05-06 06:10 | 33.32559 | 66.65713 | 36105 ft | 444 kts | 308° |
| 2026-05-06 06:10 | 33.36481 | 66.59997 | 36098 ft | 445 kts | 308° |
| 2026-05-06 06:11 | 33.40405 | 66.54268 | 36097 ft | 445 kts | 308° |
| 2026-05-06 06:11 | 33.44330 | 66.48528 | 36101 ft | 445 kts | 308° |
| 2026-05-06 06:12 | 33.48256 | 66.42777 | 36074 ft | 445 kts | 308° |
| 2026-05-06 06:12 | 33.52160 | 66.37024 | 36065 ft | 445 kts | 308° |
| 2026-05-06 06:13 | 33.56033 | 66.31307 | 36063 ft | 444 kts | 308° |
| 2026-05-06 06:13 | 33.59922 | 66.25561 | 36056 ft | 444 kts | 308° |
| 2026-05-06 06:14 | 33.63786 | 66.19842 | 36050 ft | 444 kts | 308° |
| 2026-05-06 06:14 | 33.67649 | 66.14117 | 36081 ft | 444 kts | 308° |
| 2026-05-06 06:15 | 33.71536 | 66.08346 | 36081 ft | 444 kts | 308° |
| 2026-05-06 06:15 | 33.75427 | 66.02559 | 36094 ft | 445 kts | 308° |
| 2026-05-06 06:16 | 33.79317 | 65.96766 | 36091 ft | 444 kts | 308° |
| 2026-05-06 06:16 | 33.83165 | 65.91022 | 36104 ft | 445 kts | 308° |
| 2026-05-06 06:17 | 33.87051 | 65.85218 | 36106 ft | 447 kts | 308° |
| 2026-05-06 06:17 | 33.90955 | 65.79376 | 36122 ft | 448 kts | 308° |
| 2026-05-06 06:18 | 33.94869 | 65.73510 | 36120 ft | 449 kts | 308° |
| 2026-05-06 06:18 | 33.98781 | 65.67635 | 36143 ft | 449 kts | 308° |
| 2026-05-06 06:19 | 34.02691 | 65.61756 | 36138 ft | 449 kts | 308° |
| 2026-05-06 06:19 | 34.06541 | 65.55957 | 36146 ft | 447 kts | 308° |
| 2026-05-06 06:20 | 34.10409 | 65.50134 | 36145 ft | 443 kts | 307° |
| 2026-05-06 06:20 | 34.14266 | 65.44322 | 36102 ft | 443 kts | 307° |
| 2026-05-06 06:21 | 34.18120 | 65.38504 | 36126 ft | 444 kts | 307° |
| 2026-05-06 06:21 | 34.21981 | 65.32666 | 36141 ft | 445 kts | 307° |
| 2026-05-06 06:22 | 34.25844 | 65.26815 | 36148 ft | 445 kts | 307° |
| 2026-05-06 06:22 | 34.29680 | 65.20995 | 36149 ft | 445 kts | 307° |
| 2026-05-06 06:23 | 34.33542 | 65.15129 | 36136 ft | 445 kts | 307° |
| 2026-05-06 06:23 | 34.37400 | 65.09254 | 36131 ft | 446 kts | 307° |
| 2026-05-06 06:24 | 34.40618 | 65.04350 | 36119 ft | 447 kts | 307° |
| 2026-05-06 06:24 | 34.44490 | 64.98441 | 36142 ft | 448 kts | 307° |
| 2026-05-06 06:25 | 34.48363 | 64.92520 | 36149 ft | 448 kts | 307° |
| 2026-05-06 06:26 | 34.54161 | 64.83621 | 36150 ft | 449 kts | 307° |
| 2026-05-06 06:26 | 34.58026 | 64.77670 | 36149 ft | 449 kts | 307° |
| 2026-05-06 06:27 | 34.61873 | 64.71738 | 36142 ft | 449 kts | 307° |
| 2026-05-06 06:27 | 34.65734 | 64.65774 | 36138 ft | 448 kts | 307° |
| 2026-05-06 06:28 | 34.69586 | 64.59815 | 36132 ft | 448 kts | 307° |
| 2026-05-06 06:28 | 34.73440 | 64.53845 | 36123 ft | 449 kts | 307° |
| 2026-05-06 06:29 | 34.77291 | 64.47866 | 36130 ft | 449 kts | 307° |
| 2026-05-06 06:29 | 34.81135 | 64.41890 | 36128 ft | 449 kts | 307° |
| 2026-05-06 06:30 | 34.84965 | 64.35923 | 36124 ft | 449 kts | 307° |
| 2026-05-06 06:30 | 34.88804 | 64.29935 | 36086 ft | 449 kts | 307° |
| 2026-05-06 06:31 | 34.92645 | 64.23934 | 36085 ft | 449 kts | 307° |
| 2026-05-06 06:31 | 34.96486 | 64.17920 | 36067 ft | 450 kts | 307° |
| 2026-05-06 06:32 | 35.00334 | 64.11886 | 36083 ft | 450 kts | 306° |
| 2026-05-06 06:32 | 35.04175 | 64.05851 | 36046 ft | 450 kts | 306° |
| 2026-05-06 06:33 | 35.07981 | 63.99866 | 36039 ft | 448 kts | 306° |
| 2026-05-06 06:33 | 35.11802 | 63.93842 | 36022 ft | 448 kts | 306° |
| 2026-05-06 06:34 | 35.15617 | 63.87817 | 36045 ft | 450 kts | 306° |
| 2026-05-06 06:34 | 35.19454 | 63.81748 | 36036 ft | 450 kts | 306° |
| 2026-05-06 06:35 | 35.23285 | 63.75678 | 36022 ft | 450 kts | 306° |
| 2026-05-06 06:35 | 35.27106 | 63.69613 | 35995 ft | 451 kts | 306° |
| 2026-05-06 06:36 | 35.30920 | 63.63553 | 35988 ft | 452 kts | 306° |
| 2026-05-06 06:36 | 35.34762 | 63.57471 | 35968 ft | 451 kts | 306° |
| 2026-05-06 06:37 | 35.38592 | 63.51404 | 35984 ft | 451 kts | 306° |
| 2026-05-06 06:37 | 35.42432 | 63.45306 | 35951 ft | 452 kts | 306° |
| 2026-05-06 06:38 | 35.46270 | 63.39201 | 35960 ft | 452 kts | 306° |
| 2026-05-06 06:38 | 35.50108 | 63.33082 | 35942 ft | 452 kts | 306° |
| 2026-05-06 06:39 | 35.53920 | 63.26996 | 35939 ft | 452 kts | 306° |
| 2026-05-06 06:39 | 35.57744 | 63.20878 | 35925 ft | 452 kts | 306° |
| 2026-05-06 06:40 | 35.61524 | 63.14766 | 35927 ft | 452 kts | 305° |
| 2026-05-06 06:40 | 35.65302 | 63.08590 | 35922 ft | 452 kts | 305° |
| 2026-05-06 06:41 | 35.69086 | 63.02407 | 35922 ft | 453 kts | 305° |
| 2026-05-06 06:41 | 35.72875 | 62.96210 | 35928 ft | 453 kts | 305° |
| 2026-05-06 06:42 | 35.76655 | 62.90017 | 35924 ft | 453 kts | 305° |
| 2026-05-06 06:42 | 35.80436 | 62.83812 | 35924 ft | 453 kts | 305° |
| 2026-05-06 06:43 | 35.84193 | 62.77633 | 35915 ft | 453 kts | 304° |
| 2026-05-06 06:43 | 35.87971 | 62.71409 | 35915 ft | 454 kts | 304° |
| 2026-05-06 06:44 | 35.91746 | 62.65178 | 35918 ft | 455 kts | 304° |
| 2026-05-06 06:44 | 35.95526 | 62.58928 | 35915 ft | 455 kts | 304° |
| 2026-05-06 06:45 | 35.99312 | 62.52658 | 35920 ft | 455 kts | 304° |
| 2026-05-06 06:45 | 36.03094 | 62.46382 | 35923 ft | 455 kts | 304° |
| 2026-05-06 06:46 | 36.06873 | 62.40099 | 35903 ft | 456 kts | 304° |
| 2026-05-06 06:46 | 36.10652 | 62.33806 | 35908 ft | 456 kts | 304° |
| 2026-05-06 06:47 | 36.14406 | 62.27543 | 35902 ft | 456 kts | 304° |
| 2026-05-06 06:47 | 36.18172 | 62.21248 | 35914 ft | 456 kts | 304° |
| 2026-05-06 06:48 | 36.21939 | 62.14938 | 35897 ft | 456 kts | 303° |
| 2026-05-06 06:48 | 36.25700 | 62.08628 | 35891 ft | 456 kts | 303° |
| 2026-05-06 06:49 | 36.29457 | 62.02315 | 35887 ft | 456 kts | 303° |
| 2026-05-06 06:49 | 36.33215 | 61.95986 | 35883 ft | 456 kts | 303° |
| 2026-05-06 06:50 | 36.36976 | 61.89642 | 35874 ft | 456 kts | 303° |
| 2026-05-06 06:50 | 36.40710 | 61.83330 | 35875 ft | 456 kts | 303° |
| 2026-05-06 06:51 | 36.44460 | 61.76979 | 35875 ft | 456 kts | 303° |
| 2026-05-06 06:51 | 36.48221 | 61.70599 | 35875 ft | 456 kts | 303° |
| 2026-05-06 06:52 | 36.51973 | 61.64222 | 35873 ft | 457 kts | 303° |
| 2026-05-06 06:52 | 36.55723 | 61.57836 | 35873 ft | 458 kts | 303° |
| 2026-05-06 06:53 | 36.59392 | 61.51577 | 35881 ft | 458 kts | 303° |
| 2026-05-06 06:53 | 36.63147 | 61.45162 | 35884 ft | 458 kts | 303° |
| 2026-05-06 06:54 | 36.66838 | 61.38694 | 35883 ft | 458 kts | 302° |
| 2026-05-06 06:54 | 36.70519 | 61.32195 | 35890 ft | 459 kts | 302° |
| 2026-05-06 06:55 | 36.74202 | 61.25702 | 35891 ft | 459 kts | 302° |
| 2026-05-06 06:55 | 36.77860 | 61.19247 | 35895 ft | 459 kts | 302° |
| 2026-05-06 06:56 | 36.81532 | 61.12757 | 35889 ft | 459 kts | 302° |
| 2026-05-06 06:56 | 36.85206 | 61.06250 | 35899 ft | 459 kts | 302° |
| 2026-05-06 06:57 | 36.88889 | 60.99715 | 35895 ft | 459 kts | 302° |
| 2026-05-06 06:57 | 36.92551 | 60.93205 | 35900 ft | 460 kts | 302° |
| 2026-05-06 06:58 | 36.96231 | 60.86648 | 35897 ft | 461 kts | 301° |
| 2026-05-06 06:58 | 36.99973 | 60.80199 | 35898 ft | 463 kts | 304° |
| 2026-05-06 06:59 | 37.03997 | 60.73900 | 35893 ft | 463 kts | 305° |
| 2026-05-06 06:59 | 37.07997 | 60.67577 | 35908 ft | 463 kts | 304° |
| 2026-05-06 07:00 | 37.11971 | 60.61215 | 35894 ft | 464 kts | 304° |
| 2026-05-06 07:00 | 37.15943 | 60.54828 | 35896 ft | 464 kts | 304° |
| 2026-05-06 07:01 | 37.19909 | 60.48440 | 35899 ft | 465 kts | 304° |
| 2026-05-06 07:01 | 37.23877 | 60.42037 | 35903 ft | 464 kts | 304° |
| 2026-05-06 07:02 | 37.27837 | 60.35636 | 35897 ft | 464 kts | 304° |
| 2026-05-06 07:02 | 37.31767 | 60.29271 | 35884 ft | 463 kts | 304° |
| 2026-05-06 07:03 | 37.35703 | 60.22884 | 35883 ft | 463 kts | 303° |
| 2026-05-06 07:03 | 37.39642 | 60.16479 | 35884 ft | 463 kts | 303° |
| 2026-05-06 07:04 | 37.43571 | 60.10078 | 35875 ft | 462 kts | 303° |
| 2026-05-06 07:04 | 37.47497 | 60.03671 | 35876 ft | 462 kts | 303° |
| 2026-05-06 07:05 | 37.51417 | 59.97260 | 35864 ft | 462 kts | 303° |
| 2026-05-06 07:05 | 37.55342 | 59.90829 | 35853 ft | 463 kts | 303° |
| 2026-05-06 07:06 | 37.59265 | 59.84388 | 35855 ft | 463 kts | 302° |
| 2026-05-06 07:06 | 37.63192 | 59.77928 | 35853 ft | 464 kts | 302° |
| 2026-05-06 07:07 | 37.67110 | 59.71470 | 35853 ft | 465 kts | 302° |
| 2026-05-06 07:07 | 37.71017 | 59.65019 | 35857 ft | 465 kts | 302° |
| 2026-05-06 07:08 | 37.74942 | 59.58525 | 35863 ft | 466 kts | 302° |
| 2026-05-06 07:08 | 37.78881 | 59.51995 | 35848 ft | 466 kts | 302° |
| 2026-05-06 07:09 | 37.82787 | 59.45506 | 35839 ft | 467 kts | 302° |
| 2026-05-06 07:09 | 37.86713 | 59.38972 | 35843 ft | 467 kts | 302° |
| 2026-05-06 07:10 | 37.90452 | 59.32227 | 35841 ft | 462 kts | 296° |
| 2026-05-06 07:10 | 37.93775 | 59.25306 | 35846 ft | 463 kts | 297° |
| 2026-05-06 07:11 | 37.97143 | 59.18362 | 35836 ft | 463 kts | 297° |
| 2026-05-06 07:11 | 37.99934 | 59.12580 | 35836 ft | 463 kts | 297° |
| 2026-05-06 07:12 | 38.03846 | 59.04444 | 35836 ft | 462 kts | 297° |
| 2026-05-06 07:12 | 38.07169 | 58.97515 | 35842 ft | 463 kts | 296° |
| 2026-05-06 07:13 | 38.10513 | 58.90528 | 35836 ft | 462 kts | 296° |
| 2026-05-06 07:13 | 38.13844 | 58.83554 | 35835 ft | 462 kts | 296° |
| 2026-05-06 07:14 | 38.16611 | 58.77750 | 35833 ft | 462 kts | 296° |
| 2026-05-06 07:14 | 38.19935 | 58.70761 | 35817 ft | 463 kts | 296° |
| 2026-05-06 07:15 | 38.23803 | 58.62612 | 35833 ft | 463 kts | 296° |
| 2026-05-06 07:15 | 38.26588 | 58.56731 | 35834 ft | 463 kts | 296° |
| 2026-05-06 07:16 | 38.29884 | 58.49758 | 35838 ft | 463 kts | 296° |
| 2026-05-06 07:16 | 38.33204 | 58.42718 | 35848 ft | 464 kts | 296° |
| 2026-05-06 07:17 | 38.36524 | 58.35663 | 35849 ft | 464 kts | 296° |
| 2026-05-06 07:17 | 38.39805 | 58.28601 | 35849 ft | 462 kts | 294° |
| 2026-05-06 07:18 | 38.42491 | 58.21191 | 35851 ft | 460 kts | 290° |
| 2026-05-06 07:18 | 38.45135 | 58.13752 | 35851 ft | 460 kts | 290° |
| 2026-05-06 07:19 | 38.47772 | 58.06311 | 35843 ft | 460 kts | 290° |
| 2026-05-06 07:19 | 38.50393 | 57.98880 | 35844 ft | 460 kts | 290° |
| 2026-05-06 07:20 | 38.53012 | 57.91425 | 35851 ft | 459 kts | 290° |
| 2026-05-06 07:20 | 38.55616 | 57.84000 | 35848 ft | 458 kts | 290° |
| 2026-05-06 07:21 | 38.58208 | 57.76586 | 35846 ft | 458 kts | 289° |
| 2026-05-06 07:21 | 38.60779 | 57.69216 | 35840 ft | 457 kts | 289° |
| 2026-05-06 07:22 | 38.63102 | 57.61698 | 35835 ft | 454 kts | 286° |
| 2026-05-06 07:22 | 38.65277 | 57.54104 | 35843 ft | 454 kts | 286° |
| 2026-05-06 07:23 | 38.67453 | 57.46517 | 35847 ft | 454 kts | 286° |
| 2026-05-06 07:23 | 38.69607 | 57.38963 | 35846 ft | 454 kts | 285° |
| 2026-05-06 07:24 | 38.71763 | 57.31376 | 35842 ft | 454 kts | 286° |
| 2026-05-06 07:24 | 38.73915 | 57.23783 | 35858 ft | 454 kts | 285° |
| 2026-05-06 07:25 | 38.76029 | 57.16303 | 35860 ft | 454 kts | 285° |
| 2026-05-06 07:25 | 38.78165 | 57.08719 | 35856 ft | 453 kts | 285° |
| 2026-05-06 07:26 | 38.80288 | 57.01163 | 35855 ft | 453 kts | 285° |
| 2026-05-06 07:26 | 38.82405 | 56.93604 | 35882 ft | 452 kts | 285° |
| 2026-05-06 07:27 | 38.84527 | 56.86005 | 35865 ft | 452 kts | 285° |
| 2026-05-06 07:27 | 38.86638 | 56.78427 | 35867 ft | 451 kts | 285° |
| 2026-05-06 07:28 | 38.88740 | 56.70858 | 35864 ft | 450 kts | 285° |
| 2026-05-06 07:28 | 38.91881 | 56.59507 | 35865 ft | 450 kts | 284° |
| 2026-05-06 07:29 | 38.93967 | 56.51936 | 35875 ft | 449 kts | 284° |
| 2026-05-06 07:29 | 38.96047 | 56.44370 | 35869 ft | 448 kts | 284° |
| 2026-05-06 07:30 | 38.98103 | 56.36869 | 35866 ft | 448 kts | 284° |
| 2026-05-06 07:30 | 39.00142 | 56.29325 | 35894 ft | 446 kts | 282° |
| 2026-05-06 07:31 | 39.01877 | 56.21695 | 35870 ft | 446 kts | 281° |
| 2026-05-06 07:31 | 39.03643 | 56.14054 | 35868 ft | 446 kts | 281° |
| 2026-05-06 07:32 | 39.05397 | 56.06406 | 35874 ft | 446 kts | 281° |
| 2026-05-06 07:32 | 39.07142 | 55.98755 | 35878 ft | 446 kts | 281° |
| 2026-05-06 07:33 | 39.08870 | 55.91144 | 35874 ft | 446 kts | 281° |
| 2026-05-06 07:33 | 39.10607 | 55.83473 | 35880 ft | 447 kts | 281° |
| 2026-05-06 07:34 | 39.12342 | 55.75782 | 35903 ft | 446 kts | 281° |
| 2026-05-06 07:34 | 39.14068 | 55.68107 | 35898 ft | 446 kts | 281° |
| 2026-05-06 07:35 | 39.15788 | 55.60434 | 35920 ft | 445 kts | 281° |
| 2026-05-06 07:35 | 39.17496 | 55.52778 | 35892 ft | 444 kts | 281° |
| 2026-05-06 07:36 | 39.19186 | 55.45164 | 35903 ft | 443 kts | 280° |
| 2026-05-06 07:36 | 39.20879 | 55.37525 | 35896 ft | 443 kts | 280° |
| 2026-05-06 07:37 | 39.22559 | 55.29908 | 35891 ft | 442 kts | 280° |
| 2026-05-06 07:37 | 39.24234 | 55.22291 | 35894 ft | 442 kts | 280° |
| 2026-05-06 07:38 | 39.25905 | 55.14662 | 35880 ft | 441 kts | 280° |
| 2026-05-06 07:38 | 39.27567 | 55.07052 | 35873 ft | 440 kts | 280° |
| 2026-05-06 07:39 | 39.29221 | 54.99448 | 35878 ft | 440 kts | 280° |
| 2026-05-06 07:39 | 39.30862 | 54.91883 | 35877 ft | 439 kts | 279° |
| 2026-05-06 07:40 | 39.32506 | 54.84279 | 35872 ft | 439 kts | 279° |
| 2026-05-06 07:40 | 39.34143 | 54.76670 | 35877 ft | 440 kts | 279° |
| 2026-05-06 07:41 | 39.35779 | 54.69048 | 35880 ft | 440 kts | 279° |
| 2026-05-06 07:41 | 39.37410 | 54.61416 | 35885 ft | 441 kts | 279° |
| 2026-05-06 07:42 | 39.39036 | 54.53787 | 35890 ft | 441 kts | 279° |
| 2026-05-06 07:42 | 39.40646 | 54.46207 | 35897 ft | 441 kts | 279° |
| 2026-05-06 07:43 | 39.42266 | 54.38548 | 35898 ft | 441 kts | 279° |
| 2026-05-06 07:43 | 39.43870 | 54.30942 | 35898 ft | 441 kts | 279° |
| 2026-05-06 07:44 | 39.45481 | 54.23270 | 35896 ft | 441 kts | 279° |
| 2026-05-06 07:44 | 39.47086 | 54.15604 | 35893 ft | 441 kts | 279° |
| 2026-05-06 07:45 | 39.48688 | 54.07987 | 35890 ft | 441 kts | 281° |
| 2026-05-06 07:45 | 39.51083 | 54.00580 | 35887 ft | 452 kts | 291° |
| 2026-05-06 07:46 | 39.54570 | 53.93699 | 35892 ft | 459 kts | 297° |
| 2026-05-06 07:46 | 39.58237 | 53.86934 | 35895 ft | 459 kts | 297° |
| 2026-05-06 07:47 | 39.61895 | 53.80152 | 35900 ft | 458 kts | 297° |
| 2026-05-06 07:47 | 39.65543 | 53.73383 | 35909 ft | 458 kts | 297° |
| 2026-05-06 07:48 | 39.69191 | 53.66605 | 35901 ft | 458 kts | 297° |
| 2026-05-06 07:48 | 39.72831 | 53.59826 | 35899 ft | 457 kts | 297° |
| 2026-05-06 07:49 | 39.76446 | 53.53081 | 35940 ft | 457 kts | 296° |
| 2026-05-06 07:49 | 39.80081 | 53.46281 | 35905 ft | 458 kts | 296° |
| 2026-05-06 07:50 | 39.83709 | 53.39483 | 35913 ft | 458 kts | 296° |
| 2026-05-06 07:50 | 39.87345 | 53.32650 | 36039 ft | 461 kts | 296° |
| 2026-05-06 07:51 | 39.89175 | 53.29207 | 36417 ft | 462 kts | 296° |
| 2026-05-06 07:51 | 39.90999 | 53.25771 | 36787 ft | 463 kts | 297° |
| 2026-05-06 07:51 | 39.92829 | 53.22323 | 37186 ft | 463 kts | 297° |
| 2026-05-06 07:51 | 39.94661 | 53.18866 | 37566 ft | 463 kts | 297° |
| 2026-05-06 07:52 | 39.96470 | 53.15449 | 37866 ft | 464 kts | 297° |
| 2026-05-06 07:52 | 39.98311 | 53.11962 | 37913 ft | 466 kts | 297° |
| 2026-05-06 07:52 | 40.01955 | 53.05069 | 37910 ft | 462 kts | 297° |
| 2026-05-06 07:53 | 40.05604 | 52.98142 | 37908 ft | 463 kts | 297° |
| 2026-05-06 07:53 | 40.09258 | 52.91234 | 37936 ft | 463 kts | 297° |
| 2026-05-06 07:54 | 40.12924 | 52.84288 | 37940 ft | 465 kts | 297° |
| 2026-05-06 07:54 | 40.16584 | 52.77337 | 37941 ft | 464 kts | 297° |
| 2026-05-06 07:55 | 40.20226 | 52.70403 | 37942 ft | 463 kts | 297° |
| 2026-05-06 07:55 | 40.23760 | 52.63437 | 37921 ft | 459 kts | 292° |
| 2026-05-06 07:56 | 40.26498 | 52.55978 | 37930 ft | 451 kts | 284° |
| 2026-05-06 07:56 | 40.28327 | 52.48200 | 37943 ft | 444 kts | 277° |
| 2026-05-06 07:57 | 40.29828 | 52.40344 | 37952 ft | 446 kts | 278° |
| 2026-05-06 07:57 | 40.31344 | 52.32460 | 37974 ft | 447 kts | 278° |
| 2026-05-06 07:58 | 40.32845 | 52.24544 | 37968 ft | 448 kts | 278° |
| 2026-05-06 07:58 | 40.34339 | 52.16617 | 37967 ft | 448 kts | 278° |
| 2026-05-06 07:59 | 40.35828 | 52.08677 | 37975 ft | 448 kts | 277° |
| 2026-05-06 07:59 | 40.37301 | 52.00796 | 37973 ft | 448 kts | 277° |
| 2026-05-06 08:00 | 40.38777 | 51.92865 | 37972 ft | 447 kts | 277° |
| 2026-05-06 08:00 | 40.40247 | 51.84937 | 37978 ft | 447 kts | 277° |
| 2026-05-06 08:01 | 40.41709 | 51.77014 | 37985 ft | 447 kts | 277° |
| 2026-05-06 08:01 | 40.43168 | 51.69076 | 37971 ft | 447 kts | 277° |
| 2026-05-06 08:02 | 40.44621 | 51.61134 | 37969 ft | 448 kts | 277° |
| 2026-05-06 08:02 | 40.45826 | 51.54522 | 37963 ft | 449 kts | 277° |
| 2026-05-06 08:03 | 40.47113 | 51.45192 | 37973 ft | 444 kts | 271° |
| 2026-05-06 08:03 | 40.47728 | 51.38506 | 37980 ft | 445 kts | 271° |
| 2026-05-06 08:04 | 40.48493 | 51.30434 | 37987 ft | 445 kts | 271° |
| 2026-05-06 08:04 | 40.49247 | 51.22357 | 38017 ft | 446 kts | 271° |
| 2026-05-06 08:05 | 40.49994 | 51.14257 | 38000 ft | 446 kts | 271° |
| 2026-05-06 08:05 | 40.50733 | 51.06167 | 37999 ft | 446 kts | 271° |
| 2026-05-06 08:06 | 40.51466 | 50.98087 | 37999 ft | 445 kts | 271° |
| 2026-05-06 08:06 | 40.52204 | 50.90011 | 37992 ft | 445 kts | 272° |
| 2026-05-06 08:07 | 40.53275 | 50.81971 | 38031 ft | 447 kts | 275° |
| 2026-05-06 08:07 | 40.54394 | 50.73916 | 37981 ft | 448 kts | 274° |
| 2026-05-06 08:08 | 40.55457 | 50.65912 | 37986 ft | 448 kts | 274° |
| 2026-05-06 08:08 | 40.56510 | 50.57820 | 37990 ft | 449 kts | 274° |
| 2026-05-06 08:09 | 40.57556 | 50.49737 | 37994 ft | 449 kts | 274° |
| 2026-05-06 08:09 | 40.58600 | 50.41623 | 38004 ft | 450 kts | 274° |
| 2026-05-06 08:10 | 40.59639 | 50.33501 | 37992 ft | 450 kts | 274° |
| 2026-05-06 08:10 | 40.60666 | 50.25428 | 37995 ft | 450 kts | 274° |
| 2026-05-06 08:11 | 40.61696 | 50.17288 | 38010 ft | 450 kts | 274° |
| 2026-05-06 08:11 | 40.62720 | 50.09140 | 37995 ft | 451 kts | 274° |
| 2026-05-06 08:12 | 40.63738 | 50.00992 | 37990 ft | 452 kts | 274° |
| 2026-05-06 08:12 | 40.64732 | 49.92995 | 37989 ft | 453 kts | 274° |
| 2026-05-06 08:13 | 40.65743 | 49.84815 | 38001 ft | 453 kts | 274° |
| 2026-05-06 08:13 | 40.66750 | 49.76620 | 38007 ft | 453 kts | 274° |
| 2026-05-06 08:14 | 40.67749 | 49.68432 | 38004 ft | 453 kts | 274° |
| 2026-05-06 08:14 | 40.68744 | 49.60224 | 37997 ft | 454 kts | 274° |
| 2026-05-06 08:15 | 40.69737 | 49.51994 | 38001 ft | 454 kts | 274° |
| 2026-05-06 08:15 | 40.70720 | 49.43783 | 38000 ft | 454 kts | 274° |
| 2026-05-06 08:16 | 40.71685 | 49.35634 | 38006 ft | 453 kts | 274° |
| 2026-05-06 08:16 | 40.72488 | 49.27410 | 37997 ft | 449 kts | 268° |
| 2026-05-06 08:17 | 40.72413 | 49.19211 | 37996 ft | 446 kts | 261° |
| 2026-05-06 08:17 | 40.71700 | 49.12158 | 37998 ft | 445 kts | 258° |
| 2026-05-06 08:18 | 40.70830 | 49.04110 | 38000 ft | 446 kts | 258° |
| 2026-05-06 08:18 | 40.69945 | 48.95988 | 38001 ft | 447 kts | 258° |
| 2026-05-06 08:19 | 40.69049 | 48.87892 | 38004 ft | 447 kts | 258° |
| 2026-05-06 08:19 | 40.68145 | 48.79787 | 38001 ft | 447 kts | 258° |
| 2026-05-06 08:20 | 40.67232 | 48.71672 | 37986 ft | 447 kts | 258° |
| 2026-05-06 08:20 | 40.66319 | 48.63586 | 37996 ft | 447 kts | 258° |
| 2026-05-06 08:21 | 40.65395 | 48.55471 | 37984 ft | 449 kts | 258° |
| 2026-05-06 08:21 | 40.64468 | 48.47383 | 37990 ft | 450 kts | 257° |
| 2026-05-06 08:22 | 40.63528 | 48.39233 | 38014 ft | 450 kts | 258° |
| 2026-05-06 08:22 | 40.62583 | 48.31080 | 38016 ft | 450 kts | 258° |
| 2026-05-06 08:23 | 40.61634 | 48.22942 | 38015 ft | 450 kts | 258° |
| 2026-05-06 08:23 | 40.60678 | 48.14806 | 38012 ft | 449 kts | 258° |
| 2026-05-06 08:24 | 40.59724 | 48.06706 | 38010 ft | 448 kts | 258° |
| 2026-05-06 08:24 | 40.58779 | 47.98601 | 38019 ft | 449 kts | 259° |
| 2026-05-06 08:25 | 40.58475 | 47.90427 | 38013 ft | 453 kts | 267° |
| 2026-05-06 08:25 | 40.58769 | 47.82122 | 38007 ft | 454 kts | 268° |
| 2026-05-06 08:26 | 40.59034 | 47.73841 | 38008 ft | 454 kts | 268° |
| 2026-05-06 08:26 | 40.59294 | 47.65528 | 38019 ft | 454 kts | 268° |
| 2026-05-06 08:27 | 40.59550 | 47.57203 | 38007 ft | 454 kts | 268° |
| 2026-05-06 08:27 | 40.59799 | 47.48938 | 38016 ft | 455 kts | 268° |
| 2026-05-06 08:28 | 40.60044 | 47.40611 | 38013 ft | 455 kts | 268° |
| 2026-05-06 08:28 | 40.60282 | 47.32301 | 38013 ft | 455 kts | 268° |
| 2026-05-06 08:29 | 40.60515 | 47.23980 | 38015 ft | 455 kts | 268° |
| 2026-05-06 08:29 | 40.60925 | 47.15660 | 38019 ft | 458 kts | 273° |
| 2026-05-06 08:30 | 40.61800 | 47.07413 | 38012 ft | 458 kts | 273° |
| 2026-05-06 08:30 | 40.62653 | 46.99095 | 38000 ft | 459 kts | 273° |
| 2026-05-06 08:31 | 40.63501 | 46.90747 | 38004 ft | 460 kts | 273° |
| 2026-05-06 08:31 | 40.64346 | 46.82380 | 38008 ft | 461 kts | 273° |
| 2026-05-06 08:32 | 40.65186 | 46.73997 | 38010 ft | 462 kts | 273° |
| 2026-05-06 08:32 | 40.66021 | 46.65606 | 38019 ft | 463 kts | 273° |
| 2026-05-06 08:33 | 40.66852 | 46.57181 | 38019 ft | 464 kts | 273° |
| 2026-05-06 08:33 | 40.67680 | 46.48743 | 38021 ft | 464 kts | 273° |
| 2026-05-06 08:34 | 40.68909 | 46.36075 | 38024 ft | 465 kts | 273° |
| 2026-05-06 08:35 | 40.69715 | 46.27694 | 38023 ft | 465 kts | 273° |
| 2026-05-06 08:35 | 40.70521 | 46.19239 | 38014 ft | 466 kts | 274° |
| 2026-05-06 08:36 | 40.71323 | 46.10764 | 38011 ft | 466 kts | 273° |
| 2026-05-06 08:36 | 40.72107 | 46.02418 | 38038 ft | 467 kts | 273° |
| 2026-05-06 08:37 | 40.72896 | 45.93931 | 38031 ft | 467 kts | 273° |
| 2026-05-06 08:37 | 40.73683 | 45.85424 | 38042 ft | 467 kts | 274° |
| 2026-05-06 08:38 | 40.74461 | 45.76926 | 38032 ft | 467 kts | 274° |
| 2026-05-06 08:38 | 40.75234 | 45.68417 | 38025 ft | 467 kts | 273° |
| 2026-05-06 08:39 | 40.75995 | 45.59968 | 38022 ft | 467 kts | 273° |
| 2026-05-06 08:39 | 40.76755 | 45.51472 | 38028 ft | 466 kts | 273° |
| 2026-05-06 08:40 | 40.77184 | 45.42998 | 38011 ft | 465 kts | 270° |
| 2026-05-06 08:40 | 40.77586 | 45.34477 | 38018 ft | 465 kts | 270° |
| 2026-05-06 08:41 | 40.77982 | 45.25969 | 38007 ft | 464 kts | 270° |
| 2026-05-06 08:41 | 40.78363 | 45.17460 | 38019 ft | 464 kts | 270° |
| 2026-05-06 08:42 | 40.78733 | 45.09027 | 38015 ft | 464 kts | 270° |
| 2026-05-06 08:42 | 40.79102 | 45.00518 | 37993 ft | 465 kts | 270° |
| 2026-05-06 08:43 | 40.79464 | 44.91995 | 38009 ft | 466 kts | 270° |
| 2026-05-06 08:43 | 40.79819 | 44.83451 | 38019 ft | 466 kts | 270° |
| 2026-05-06 08:44 | 40.80170 | 44.74889 | 38010 ft | 467 kts | 270° |
| 2026-05-06 08:44 | 40.80515 | 44.66320 | 38006 ft | 467 kts | 270° |
| 2026-05-06 08:45 | 40.80852 | 44.57788 | 38020 ft | 467 kts | 270° |
| 2026-05-06 08:45 | 40.81184 | 44.49277 | 38009 ft | 467 kts | 270° |
| 2026-05-06 08:46 | 40.81507 | 44.40773 | 38031 ft | 466 kts | 270° |
| 2026-05-06 08:46 | 40.81825 | 44.32224 | 38022 ft | 465 kts | 270° |
| 2026-05-06 08:47 | 40.82136 | 44.23699 | 38041 ft | 465 kts | 270° |
| 2026-05-06 08:47 | 40.82440 | 44.15177 | 38038 ft | 465 kts | 270° |
| 2026-05-06 08:48 | 40.82739 | 44.06669 | 38045 ft | 465 kts | 270° |
| 2026-05-06 08:48 | 40.83032 | 43.98135 | 38047 ft | 465 kts | 270° |
| 2026-05-06 08:49 | 40.83317 | 43.89636 | 38061 ft | 466 kts | 270° |
| 2026-05-06 08:49 | 40.83600 | 43.81099 | 38062 ft | 467 kts | 270° |
| 2026-05-06 08:50 | 40.83876 | 43.72521 | 38080 ft | 467 kts | 270° |
| 2026-05-06 08:50 | 40.84194 | 43.63926 | 38058 ft | 469 kts | 271° |
| 2026-05-06 08:51 | 40.84708 | 43.55355 | 38054 ft | 470 kts | 272° |
| 2026-05-06 08:51 | 40.85129 | 43.48246 | 38057 ft | 470 kts | 272° |
| 2026-05-06 08:52 | 40.85612 | 43.39596 | 38050 ft | 470 kts | 271° |
| 2026-05-06 08:52 | 40.86077 | 43.30990 | 38055 ft | 470 kts | 271° |
| 2026-05-06 08:53 | 40.86536 | 43.22366 | 38048 ft | 469 kts | 271° |
| 2026-05-06 08:53 | 40.86983 | 43.13842 | 38044 ft | 469 kts | 271° |
| 2026-05-06 08:54 | 40.87428 | 43.05254 | 38048 ft | 469 kts | 271° |
| 2026-05-06 08:54 | 40.87865 | 42.96668 | 38042 ft | 468 kts | 271° |
| 2026-05-06 08:55 | 40.88296 | 42.88079 | 38019 ft | 469 kts | 271° |
| 2026-05-06 08:55 | 40.88723 | 42.79470 | 38041 ft | 469 kts | 271° |
| 2026-05-06 08:56 | 40.89143 | 42.70855 | 38044 ft | 469 kts | 271° |
| 2026-05-06 08:56 | 40.89556 | 42.62260 | 38061 ft | 470 kts | 271° |
| 2026-05-06 08:57 | 40.89960 | 42.53697 | 38058 ft | 470 kts | 271° |
| 2026-05-06 08:57 | 40.90361 | 42.45064 | 38067 ft | 471 kts | 271° |
| 2026-05-06 08:58 | 40.90757 | 42.36411 | 38060 ft | 472 kts | 271° |
| 2026-05-06 08:58 | 40.91147 | 42.27752 | 38075 ft | 472 kts | 271° |
| 2026-05-06 08:59 | 40.91531 | 42.19089 | 38084 ft | 472 kts | 271° |
| 2026-05-06 08:59 | 40.91908 | 42.10429 | 38085 ft | 472 kts | 271° |
| 2026-05-06 09:00 | 40.92277 | 42.01805 | 38083 ft | 473 kts | 271° |
| 2026-05-06 09:00 | 40.92642 | 41.93120 | 38082 ft | 473 kts | 271° |
| 2026-05-06 09:01 | 40.92998 | 41.84433 | 38087 ft | 473 kts | 271° |
| 2026-05-06 09:01 | 40.93351 | 41.75728 | 38080 ft | 474 kts | 271° |
| 2026-05-06 09:02 | 40.93698 | 41.67020 | 38112 ft | 475 kts | 271° |
| 2026-05-06 09:02 | 40.94038 | 41.58291 | 38088 ft | 476 kts | 271° |
| 2026-05-06 09:03 | 40.94372 | 41.49542 | 38100 ft | 476 kts | 271° |
| 2026-05-06 09:03 | 40.94698 | 41.40878 | 38095 ft | 475 kts | 271° |
| 2026-05-06 09:04 | 40.95015 | 41.32181 | 38097 ft | 475 kts | 271° |
| 2026-05-06 09:04 | 40.95330 | 41.23453 | 38089 ft | 475 kts | 271° |
| 2026-05-06 09:05 | 40.95637 | 41.14714 | 38095 ft | 474 kts | 271° |
| 2026-05-06 09:05 | 40.95937 | 41.06008 | 38105 ft | 475 kts | 271° |
| 2026-05-06 09:06 | 40.96229 | 40.97344 | 38110 ft | 475 kts | 271° |
| 2026-05-06 09:06 | 40.96521 | 40.88633 | 38118 ft | 475 kts | 271° |
| 2026-05-06 09:07 | 40.96799 | 40.79901 | 38111 ft | 476 kts | 270° |
| 2026-05-06 09:07 | 40.97071 | 40.71142 | 38118 ft | 477 kts | 270° |
| 2026-05-06 09:08 | 40.97339 | 40.62375 | 38134 ft | 478 kts | 270° |
| 2026-05-06 09:08 | 40.97602 | 40.53555 | 38144 ft | 479 kts | 270° |
| 2026-05-06 09:09 | 40.97859 | 40.44738 | 38150 ft | 480 kts | 270° |
| 2026-05-06 09:09 | 40.98107 | 40.35944 | 38142 ft | 481 kts | 270° |
| 2026-05-06 09:10 | 40.98351 | 40.27121 | 38146 ft | 481 kts | 270° |
| 2026-05-06 09:10 | 40.98587 | 40.18324 | 38150 ft | 481 kts | 270° |
| 2026-05-06 09:11 | 40.98814 | 40.09496 | 38159 ft | 480 kts | 270° |
| 2026-05-06 09:11 | 40.99033 | 40.00669 | 38166 ft | 480 kts | 270° |
| 2026-05-06 09:12 | 40.99246 | 39.91835 | 38153 ft | 480 kts | 270° |
| 2026-05-06 09:12 | 40.99452 | 39.82997 | 38153 ft | 480 kts | 270° |
| 2026-05-06 09:13 | 41.00044 | 39.74185 | 38154 ft | 481 kts | 276° |
| 2026-05-06 09:13 | 41.00896 | 39.65449 | 38154 ft | 481 kts | 275° |
| 2026-05-06 09:14 | 41.01734 | 39.56629 | 38135 ft | 482 kts | 275° |
| 2026-05-06 09:14 | 41.02567 | 39.47812 | 38149 ft | 483 kts | 275° |
| 2026-05-06 09:15 | 41.03395 | 39.38977 | 38143 ft | 483 kts | 275° |
| 2026-05-06 09:15 | 41.04218 | 39.30140 | 38141 ft | 484 kts | 275° |
| 2026-05-06 09:16 | 41.05033 | 39.21294 | 38142 ft | 484 kts | 275° |
| 2026-05-06 09:16 | 41.05837 | 39.12503 | 38140 ft | 483 kts | 275° |
| 2026-05-06 09:17 | 41.06656 | 39.03653 | 38141 ft | 483 kts | 275° |
| 2026-05-06 09:17 | 41.07472 | 38.94808 | 38140 ft | 483 kts | 275° |
| 2026-05-06 09:18 | 41.08278 | 38.85971 | 38140 ft | 483 kts | 275° |
| 2026-05-06 09:18 | 41.09073 | 38.77173 | 38136 ft | 483 kts | 275° |
| 2026-05-06 09:19 | 41.09865 | 38.68320 | 38131 ft | 483 kts | 275° |
| 2026-05-06 09:19 | 41.10632 | 38.59473 | 38133 ft | 483 kts | 275° |
| 2026-05-06 09:20 | 41.11375 | 38.50627 | 38133 ft | 483 kts | 275° |
| 2026-05-06 09:20 | 41.12113 | 38.41748 | 38133 ft | 484 kts | 275° |
| 2026-05-06 09:21 | 41.12846 | 38.32874 | 38138 ft | 485 kts | 275° |
| 2026-05-06 09:21 | 41.13570 | 38.24041 | 38147 ft | 485 kts | 275° |
| 2026-05-06 09:22 | 41.14299 | 38.15143 | 38151 ft | 485 kts | 275° |
| 2026-05-06 09:22 | 41.15023 | 38.06222 | 38152 ft | 486 kts | 275° |
| 2026-05-06 09:23 | 41.15739 | 37.97300 | 38158 ft | 487 kts | 275° |
| 2026-05-06 09:23 | 41.16449 | 37.88373 | 38154 ft | 486 kts | 275° |
| 2026-05-06 09:24 | 41.17197 | 37.79447 | 38146 ft | 486 kts | 275° |
| 2026-05-06 09:24 | 41.17962 | 37.70536 | 38137 ft | 486 kts | 275° |
| 2026-05-06 09:25 | 41.18715 | 37.61600 | 38141 ft | 487 kts | 275° |
| 2026-05-06 09:25 | 41.19233 | 37.52662 | 38138 ft | 486 kts | 273° |
| 2026-05-06 09:26 | 41.19855 | 37.43735 | 38147 ft | 486 kts | 275° |
| 2026-05-06 09:26 | 41.20531 | 37.34886 | 38137 ft | 485 kts | 275° |
| 2026-05-06 09:27 | 41.21194 | 37.25956 | 38129 ft | 485 kts | 274° |
| 2026-05-06 09:27 | 41.21858 | 37.17037 | 38126 ft | 485 kts | 275° |
| 2026-05-06 09:28 | 41.22560 | 37.08111 | 38127 ft | 485 kts | 275° |
| 2026-05-06 09:28 | 41.23251 | 36.99196 | 38126 ft | 485 kts | 275° |
| 2026-05-06 09:29 | 41.23932 | 36.90260 | 38117 ft | 486 kts | 275° |
| 2026-05-06 09:29 | 41.24606 | 36.81309 | 38123 ft | 487 kts | 275° |
| 2026-05-06 09:30 | 41.25273 | 36.72353 | 38136 ft | 487 kts | 275° |
| 2026-05-06 09:30 | 41.25929 | 36.63443 | 38138 ft | 487 kts | 275° |
| 2026-05-06 09:31 | 41.26881 | 36.54524 | 38119 ft | 488 kts | 282° |
| 2026-05-06 09:31 | 41.28863 | 36.45886 | 38119 ft | 489 kts | 288° |
| 2026-05-06 09:32 | 41.31054 | 36.37307 | 38122 ft | 489 kts | 288° |
| 2026-05-06 09:32 | 41.33210 | 36.28790 | 38124 ft | 489 kts | 288° |
| 2026-05-06 09:33 | 41.35380 | 36.20206 | 38119 ft | 489 kts | 288° |
| 2026-05-06 09:33 | 41.37545 | 36.11619 | 38112 ft | 489 kts | 288° |
| 2026-05-06 09:34 | 41.39705 | 36.03019 | 38106 ft | 489 kts | 288° |
| 2026-05-06 09:34 | 41.41842 | 35.94481 | 38112 ft | 489 kts | 288° |
| 2026-05-06 09:35 | 41.43991 | 35.85868 | 38110 ft | 490 kts | 288° |
| 2026-05-06 09:35 | 41.46130 | 35.77258 | 38111 ft | 489 kts | 288° |
| 2026-05-06 09:36 | 41.48264 | 35.68639 | 38104 ft | 489 kts | 288° |
| 2026-05-06 09:36 | 41.50388 | 35.60029 | 38101 ft | 489 kts | 288° |
| 2026-05-06 09:37 | 41.52498 | 35.51446 | 38107 ft | 488 kts | 288° |
| 2026-05-06 09:37 | 41.54599 | 35.42863 | 38104 ft | 488 kts | 287° |
| 2026-05-06 09:38 | 41.56694 | 35.34280 | 38109 ft | 488 kts | 288° |
| 2026-05-06 09:38 | 41.58788 | 35.25660 | 38104 ft | 488 kts | 288° |
| 2026-05-06 09:39 | 41.60876 | 35.17039 | 38101 ft | 488 kts | 288° |
| 2026-05-06 09:39 | 41.62959 | 35.08403 | 38099 ft | 487 kts | 288° |
| 2026-05-06 09:40 | 41.65020 | 34.99830 | 38099 ft | 487 kts | 288° |
| 2026-05-06 09:40 | 41.68118 | 34.86881 | 38100 ft | 488 kts | 288° |
| 2026-05-06 09:41 | 41.70179 | 34.78224 | 38098 ft | 488 kts | 288° |
| 2026-05-06 09:41 | 41.72232 | 34.69570 | 38096 ft | 488 kts | 288° |
| 2026-05-06 09:42 | 41.73936 | 34.62365 | 38101 ft | 488 kts | 288° |
| 2026-05-06 09:42 | 41.75975 | 34.53715 | 38100 ft | 488 kts | 288° |
| 2026-05-06 09:43 | 41.78008 | 34.45040 | 38086 ft | 488 kts | 288° |
| 2026-05-06 09:43 | 41.80034 | 34.36371 | 38098 ft | 487 kts | 288° |
| 2026-05-06 09:44 | 41.82039 | 34.27763 | 38098 ft | 487 kts | 288° |
| 2026-05-06 09:44 | 41.84052 | 34.19083 | 38100 ft | 487 kts | 288° |
| 2026-05-06 09:45 | 41.86060 | 34.10392 | 38118 ft | 487 kts | 288° |
| 2026-05-06 09:45 | 41.88057 | 34.01714 | 38113 ft | 486 kts | 288° |
| 2026-05-06 09:46 | 41.90045 | 33.93043 | 38108 ft | 486 kts | 288° |
| 2026-05-06 09:46 | 41.92008 | 33.84445 | 38112 ft | 485 kts | 288° |
| 2026-05-06 09:47 | 41.93974 | 33.75802 | 38124 ft | 484 kts | 288° |
| 2026-05-06 09:47 | 41.95902 | 33.67145 | 38113 ft | 484 kts | 286° |
| 2026-05-06 09:48 | 41.97562 | 33.58385 | 38106 ft | 484 kts | 285° |
| 2026-05-06 09:48 | 41.99211 | 33.49602 | 38104 ft | 484 kts | 285° |
| 2026-05-06 09:49 | 42.00877 | 33.40858 | 38131 ft | 483 kts | 286° |
| 2026-05-06 09:49 | 42.02535 | 33.32163 | 38129 ft | 482 kts | 286° |
| 2026-05-06 09:50 | 42.04193 | 33.23427 | 38129 ft | 482 kts | 286° |
| 2026-05-06 09:50 | 42.05844 | 33.14690 | 38127 ft | 481 kts | 286° |
| 2026-05-06 09:51 | 42.07491 | 33.05950 | 38124 ft | 481 kts | 287° |
| 2026-05-06 09:51 | 42.09260 | 32.97306 | 38122 ft | 480 kts | 288° |
| 2026-05-06 09:52 | 42.11053 | 32.88655 | 38122 ft | 480 kts | 287° |
| 2026-05-06 09:52 | 42.12824 | 32.79977 | 38134 ft | 480 kts | 287° |
| 2026-05-06 09:53 | 42.14583 | 32.71290 | 38131 ft | 480 kts | 287° |
| 2026-05-06 09:53 | 42.16334 | 32.62599 | 38132 ft | 481 kts | 287° |
| 2026-05-06 09:54 | 42.18065 | 32.53966 | 38128 ft | 481 kts | 287° |
| 2026-05-06 09:54 | 42.19802 | 32.45257 | 38129 ft | 481 kts | 287° |
| 2026-05-06 09:55 | 42.21529 | 32.36564 | 38132 ft | 480 kts | 287° |
| 2026-05-06 09:55 | 42.23250 | 32.27860 | 38131 ft | 480 kts | 287° |
| 2026-05-06 09:56 | 42.24968 | 32.19137 | 38122 ft | 480 kts | 287° |
| 2026-05-06 09:56 | 42.26670 | 32.10415 | 38131 ft | 480 kts | 287° |
| 2026-05-06 09:57 | 42.28375 | 32.01689 | 38131 ft | 480 kts | 287° |
| 2026-05-06 09:57 | 42.30076 | 31.92970 | 38129 ft | 480 kts | 287° |
| 2026-05-06 09:58 | 42.31770 | 31.84243 | 38135 ft | 480 kts | 287° |
| 2026-05-06 09:58 | 42.33445 | 31.75568 | 38144 ft | 480 kts | 287° |
| 2026-05-06 09:59 | 42.35123 | 31.66838 | 38146 ft | 479 kts | 287° |
| 2026-05-06 09:59 | 42.36788 | 31.58139 | 38140 ft | 478 kts | 286° |
| 2026-05-06 10:00 | 42.38446 | 31.49436 | 38146 ft | 476 kts | 287° |
| 2026-05-06 10:00 | 42.40083 | 31.40809 | 38141 ft | 475 kts | 286° |
| 2026-05-06 10:01 | 42.41719 | 31.32142 | 38123 ft | 475 kts | 286° |
| 2026-05-06 10:01 | 42.43348 | 31.23479 | 38128 ft | 475 kts | 286° |
| 2026-05-06 10:02 | 42.44968 | 31.14822 | 38118 ft | 474 kts | 286° |
| 2026-05-06 10:02 | 42.46581 | 31.06159 | 38124 ft | 474 kts | 286° |
| 2026-05-06 10:03 | 42.48187 | 30.97483 | 38126 ft | 475 kts | 286° |
| 2026-05-06 10:03 | 42.49787 | 30.88799 | 38126 ft | 475 kts | 286° |
| 2026-05-06 10:04 | 42.51380 | 30.80110 | 38127 ft | 476 kts | 286° |
| 2026-05-06 10:04 | 42.52974 | 30.71384 | 38130 ft | 477 kts | 286° |
| 2026-05-06 10:05 | 42.54549 | 30.62712 | 38135 ft | 477 kts | 286° |
| 2026-05-06 10:05 | 42.56130 | 30.53972 | 38136 ft | 477 kts | 286° |
| 2026-05-06 10:06 | 42.57706 | 30.45217 | 38132 ft | 477 kts | 285° |
| 2026-05-06 10:06 | 42.59274 | 30.36466 | 38135 ft | 478 kts | 285° |
| 2026-05-06 10:07 | 42.61367 | 30.27950 | 38133 ft | 474 kts | 296° |
| 2026-05-06 10:07 | 42.64613 | 30.20257 | 38125 ft | 472 kts | 307° |
| 2026-05-06 10:08 | 42.68604 | 30.13198 | 38131 ft | 471 kts | 309° |
| 2026-05-06 10:08 | 42.72589 | 30.06139 | 38129 ft | 471 kts | 309° |
| 2026-05-06 10:09 | 42.76574 | 29.99077 | 38129 ft | 471 kts | 309° |
| 2026-05-06 10:09 | 42.80565 | 29.91995 | 38121 ft | 470 kts | 309° |
| 2026-05-06 10:10 | 42.84536 | 29.84930 | 38117 ft | 470 kts | 309° |
| 2026-05-06 10:10 | 42.88509 | 29.77845 | 38115 ft | 470 kts | 309° |
| 2026-05-06 10:11 | 42.92437 | 29.70823 | 38105 ft | 470 kts | 309° |
| 2026-05-06 10:11 | 42.96395 | 29.63731 | 38110 ft | 470 kts | 309° |
| 2026-05-06 10:12 | 43.00354 | 29.56620 | 38120 ft | 470 kts | 309° |
| 2026-05-06 10:12 | 43.04316 | 29.49489 | 38141 ft | 471 kts | 308° |
| 2026-05-06 10:13 | 43.08275 | 29.42343 | 38145 ft | 471 kts | 308° |
| 2026-05-06 10:13 | 43.12227 | 29.35193 | 38148 ft | 471 kts | 308° |
| 2026-05-06 10:14 | 43.16150 | 29.28078 | 38145 ft | 471 kts | 308° |
| 2026-05-06 10:14 | 43.20099 | 29.20900 | 38129 ft | 471 kts | 308° |
| 2026-05-06 10:15 | 43.24039 | 29.13719 | 38126 ft | 471 kts | 308° |
| 2026-05-06 10:15 | 43.27979 | 29.06522 | 38128 ft | 471 kts | 308° |
| 2026-05-06 10:16 | 43.31914 | 28.99316 | 38130 ft | 472 kts | 308° |
| 2026-05-06 10:16 | 43.35836 | 28.92118 | 38127 ft | 472 kts | 308° |
| 2026-05-06 10:17 | 43.39766 | 28.84885 | 38125 ft | 472 kts | 308° |
| 2026-05-06 10:17 | 43.43661 | 28.77700 | 38125 ft | 473 kts | 308° |
| 2026-05-06 10:18 | 43.47588 | 28.70438 | 38115 ft | 473 kts | 308° |
| 2026-05-06 10:18 | 43.51516 | 28.63156 | 38126 ft | 473 kts | 308° |
| 2026-05-06 10:19 | 43.55436 | 28.55871 | 38128 ft | 473 kts | 308° |
| 2026-05-06 10:19 | 43.59356 | 28.48567 | 38118 ft | 473 kts | 308° |
| 2026-05-06 10:20 | 43.63269 | 28.41260 | 38120 ft | 473 kts | 308° |
| 2026-05-06 10:20 | 43.67153 | 28.33988 | 38110 ft | 473 kts | 307° |
| 2026-05-06 10:21 | 43.71048 | 28.26676 | 38102 ft | 473 kts | 307° |
| 2026-05-06 10:21 | 43.74944 | 28.19346 | 38100 ft | 473 kts | 307° |
| 2026-05-06 10:22 | 43.78832 | 28.12010 | 38096 ft | 472 kts | 307° |
| 2026-05-06 10:22 | 43.82719 | 28.04660 | 38076 ft | 473 kts | 307° |
| 2026-05-06 10:23 | 43.86601 | 27.97301 | 38078 ft | 473 kts | 307° |
| 2026-05-06 10:23 | 43.90475 | 27.89936 | 38074 ft | 473 kts | 307° |
| 2026-05-06 10:24 | 43.94348 | 27.82555 | 38068 ft | 473 kts | 307° |
| 2026-05-06 10:24 | 43.98218 | 27.75163 | 38071 ft | 473 kts | 307° |
| 2026-05-06 10:25 | 44.02053 | 27.67818 | 38072 ft | 473 kts | 307° |
| 2026-05-06 10:25 | 44.05909 | 27.60414 | 38076 ft | 472 kts | 307° |
| 2026-05-06 10:26 | 44.09744 | 27.53033 | 38070 ft | 471 kts | 307° |
| 2026-05-06 10:26 | 44.13576 | 27.45637 | 38065 ft | 471 kts | 307° |
| 2026-05-06 10:27 | 44.17397 | 27.38245 | 38057 ft | 470 kts | 307° |
| 2026-05-06 10:27 | 44.21187 | 27.30892 | 38060 ft | 469 kts | 307° |
| 2026-05-06 10:28 | 44.24988 | 27.23501 | 38047 ft | 469 kts | 307° |
| 2026-05-06 10:28 | 44.28786 | 27.16097 | 38043 ft | 468 kts | 307° |
| 2026-05-06 10:29 | 44.32571 | 27.08699 | 38029 ft | 468 kts | 307° |
| 2026-05-06 10:29 | 44.36347 | 27.01301 | 38046 ft | 468 kts | 307° |
| 2026-05-06 10:30 | 44.40083 | 26.93962 | 38049 ft | 468 kts | 307° |
| 2026-05-06 10:30 | 44.43889 | 26.86465 | 38046 ft | 468 kts | 307° |
| 2026-05-06 10:31 | 44.47628 | 26.79083 | 38044 ft | 468 kts | 307° |
| 2026-05-06 10:31 | 44.51383 | 26.71649 | 38042 ft | 468 kts | 307° |
| 2026-05-06 10:32 | 44.55139 | 26.64203 | 38040 ft | 468 kts | 307° |
| 2026-05-06 10:32 | 44.58258 | 26.58008 | 38039 ft | 468 kts | 307° |
| 2026-05-06 10:33 | 44.61793 | 26.50337 | 38041 ft | 468 kts | 304° |
| 2026-05-06 10:33 | 44.65300 | 26.42693 | 38030 ft | 468 kts | 304° |
| 2026-05-06 10:34 | 44.68824 | 26.35000 | 38035 ft | 468 kts | 304° |
| 2026-05-06 10:34 | 44.72334 | 26.27273 | 38034 ft | 468 kts | 304° |
| 2026-05-06 10:35 | 44.75831 | 26.19543 | 38052 ft | 468 kts | 303° |
| 2026-05-06 10:35 | 44.79320 | 26.11809 | 38049 ft | 468 kts | 303° |
| 2026-05-06 10:36 | 44.82778 | 26.04123 | 38047 ft | 467 kts | 303° |
| 2026-05-06 10:36 | 44.86253 | 25.96379 | 38029 ft | 467 kts | 303° |
| 2026-05-06 10:37 | 44.89723 | 25.88625 | 38048 ft | 466 kts | 303° |
| 2026-05-06 10:37 | 44.93175 | 25.80891 | 38038 ft | 465 kts | 303° |
| 2026-05-06 10:38 | 44.96580 | 25.73241 | 38034 ft | 465 kts | 303° |
| 2026-05-06 10:38 | 44.99985 | 25.65572 | 38028 ft | 464 kts | 303° |
| 2026-05-06 10:39 | 45.03400 | 25.57856 | 38048 ft | 463 kts | 303° |
| 2026-05-06 10:39 | 45.06794 | 25.50171 | 38044 ft | 462 kts | 303° |
| 2026-05-06 10:40 | 45.10188 | 25.42461 | 38049 ft | 462 kts | 303° |
| 2026-05-06 10:40 | 45.13583 | 25.34730 | 38025 ft | 462 kts | 303° |
| 2026-05-06 10:41 | 45.16951 | 25.27040 | 38030 ft | 462 kts | 303° |
| 2026-05-06 10:41 | 45.20339 | 25.19281 | 38025 ft | 462 kts | 303° |
| 2026-05-06 10:42 | 45.23691 | 25.11586 | 38027 ft | 462 kts | 302° |
| 2026-05-06 10:42 | 45.27061 | 25.03828 | 38058 ft | 461 kts | 302° |
| 2026-05-06 10:43 | 45.30428 | 24.96053 | 38052 ft | 461 kts | 302° |
| 2026-05-06 10:44 | 45.35434 | 24.84457 | 38028 ft | 460 kts | 302° |
| 2026-05-06 10:44 | 45.38767 | 24.76710 | 38012 ft | 460 kts | 302° |
| 2026-05-06 10:45 | 45.42100 | 24.68940 | 38036 ft | 459 kts | 302° |
| 2026-05-06 10:45 | 45.45381 | 24.61272 | 38030 ft | 458 kts | 302° |
| 2026-05-06 10:46 | 45.48692 | 24.53510 | 38024 ft | 457 kts | 302° |
| 2026-05-06 10:46 | 45.51989 | 24.45762 | 37995 ft | 457 kts | 302° |
| 2026-05-06 10:47 | 45.55258 | 24.38059 | 37983 ft | 455 kts | 301° |
| 2026-05-06 10:47 | 45.58529 | 24.30337 | 37978 ft | 455 kts | 301° |
| 2026-05-06 10:48 | 45.61795 | 24.22596 | 37976 ft | 455 kts | 301° |
| 2026-05-06 10:48 | 45.65053 | 24.14826 | 37983 ft | 456 kts | 301° |
| 2026-05-06 10:49 | 45.68242 | 24.06998 | 38013 ft | 456 kts | 300° |
| 2026-05-06 10:49 | 45.71437 | 23.99160 | 38012 ft | 455 kts | 301° |
| 2026-05-06 10:50 | 45.74629 | 23.91325 | 37989 ft | 455 kts | 300° |
| 2026-05-06 10:50 | 45.77786 | 23.83554 | 37987 ft | 455 kts | 300° |
| 2026-05-06 10:51 | 45.80962 | 23.75719 | 37976 ft | 454 kts | 300° |
| 2026-05-06 10:51 | 45.84131 | 23.67874 | 37979 ft | 454 kts | 300° |
| 2026-05-06 10:52 | 45.87295 | 23.60023 | 37993 ft | 454 kts | 300° |
| 2026-05-06 10:52 | 45.90450 | 23.52169 | 37989 ft | 454 kts | 300° |
| 2026-05-06 10:53 | 45.93569 | 23.44382 | 37986 ft | 454 kts | 300° |
| 2026-05-06 10:53 | 45.96697 | 23.36552 | 37985 ft | 453 kts | 300° |
| 2026-05-06 10:54 | 45.99827 | 23.28694 | 37996 ft | 452 kts | 300° |
| 2026-05-06 10:54 | 46.02932 | 23.20876 | 38004 ft | 452 kts | 300° |
| 2026-05-06 10:55 | 46.06000 | 23.13133 | 38001 ft | 452 kts | 299° |
| 2026-05-06 10:55 | 46.09108 | 23.05261 | 37976 ft | 452 kts | 299° |
| 2026-05-06 10:56 | 46.12206 | 22.97395 | 37981 ft | 452 kts | 299° |
| 2026-05-06 10:56 | 46.15300 | 22.89517 | 37979 ft | 452 kts | 299° |
| 2026-05-06 10:57 | 46.18391 | 22.81626 | 37992 ft | 451 kts | 298° |
| 2026-05-06 10:57 | 46.21470 | 22.73738 | 37990 ft | 451 kts | 298° |
| 2026-05-06 10:58 | 46.24524 | 22.65895 | 37989 ft | 450 kts | 298° |
| 2026-05-06 10:58 | 46.27581 | 22.58018 | 37989 ft | 450 kts | 298° |
| 2026-05-06 10:59 | 46.30635 | 22.50132 | 38008 ft | 449 kts | 298° |
| 2026-05-06 10:59 | 46.33676 | 22.42251 | 38009 ft | 448 kts | 298° |
| 2026-05-06 11:00 | 46.36703 | 22.34388 | 38009 ft | 448 kts | 298° |
| 2026-05-06 11:00 | 46.39731 | 22.26495 | 38007 ft | 448 kts | 298° |
| 2026-05-06 11:01 | 46.42755 | 22.18594 | 37993 ft | 448 kts | 297° |
| 2026-05-06 11:01 | 46.45754 | 22.10731 | 37993 ft | 448 kts | 297° |
| 2026-05-06 11:02 | 46.48766 | 22.02814 | 37995 ft | 448 kts | 297° |
| 2026-05-06 11:02 | 46.51774 | 21.94883 | 37987 ft | 448 kts | 297° |
| 2026-05-06 11:03 | 46.54775 | 21.86949 | 37996 ft | 448 kts | 296° |
| 2026-05-06 11:03 | 46.57771 | 21.79005 | 37998 ft | 448 kts | 296° |
| 2026-05-06 11:04 | 46.60757 | 21.71063 | 37990 ft | 447 kts | 296° |
| 2026-05-06 11:04 | 46.63717 | 21.63166 | 37985 ft | 447 kts | 296° |
| 2026-05-06 11:05 | 46.66688 | 21.55223 | 37994 ft | 447 kts | 296° |
| 2026-05-06 11:05 | 46.69656 | 21.47255 | 37995 ft | 446 kts | 295° |
| 2026-05-06 11:06 | 46.72530 | 21.39237 | 37980 ft | 446 kts | 295° |
| 2026-05-06 11:06 | 46.75376 | 21.31281 | 37978 ft | 445 kts | 295° |
| 2026-05-06 11:07 | 46.78251 | 21.23273 | 37969 ft | 445 kts | 295° |
| 2026-05-06 11:07 | 46.81111 | 21.15284 | 37966 ft | 445 kts | 294° |
| 2026-05-06 11:08 | 46.83973 | 21.07257 | 37957 ft | 445 kts | 294° |
| 2026-05-06 11:08 | 46.86822 | 20.99241 | 37951 ft | 444 kts | 294° |
| 2026-05-06 11:09 | 46.89661 | 20.91226 | 37948 ft | 444 kts | 294° |
| 2026-05-06 11:09 | 46.92481 | 20.83244 | 37950 ft | 445 kts | 294° |
| 2026-05-06 11:10 | 46.95309 | 20.75212 | 37950 ft | 445 kts | 294° |
| 2026-05-06 11:10 | 46.98135 | 20.67163 | 37952 ft | 445 kts | 294° |
| 2026-05-06 11:11 | 47.00940 | 20.59149 | 37944 ft | 445 kts | 294° |
| 2026-05-06 11:11 | 47.03751 | 20.51093 | 37942 ft | 445 kts | 293° |
| 2026-05-06 11:12 | 47.06565 | 20.43005 | 37931 ft | 444 kts | 293° |
| 2026-05-06 11:12 | 47.09369 | 20.34919 | 37931 ft | 444 kts | 293° |
| 2026-05-06 11:13 | 47.12161 | 20.26843 | 37940 ft | 444 kts | 293° |
| 2026-05-06 11:13 | 47.14953 | 20.18743 | 37938 ft | 444 kts | 293° |
| 2026-05-06 11:14 | 47.17718 | 20.10698 | 37936 ft | 445 kts | 292° |
| 2026-05-06 11:14 | 47.20501 | 20.02573 | 37935 ft | 445 kts | 292° |
| 2026-05-06 11:15 | 47.23283 | 19.94427 | 37931 ft | 445 kts | 292° |
| 2026-05-06 11:15 | 47.26029 | 19.86361 | 37931 ft | 445 kts | 292° |
| 2026-05-06 11:16 | 47.28798 | 19.78200 | 37920 ft | 446 kts | 292° |
| 2026-05-06 11:16 | 47.31548 | 19.70072 | 37922 ft | 446 kts | 292° |
| 2026-05-06 11:17 | 47.34313 | 19.61871 | 37932 ft | 447 kts | 292° |
| 2026-05-06 11:17 | 47.37075 | 19.53656 | 37938 ft | 447 kts | 292° |
| 2026-05-06 11:18 | 47.39831 | 19.45432 | 37942 ft | 447 kts | 292° |
| 2026-05-06 11:18 | 47.42578 | 19.37207 | 37934 ft | 448 kts | 292° |
| 2026-05-06 11:19 | 47.45317 | 19.28983 | 37933 ft | 449 kts | 292° |
| 2026-05-06 11:19 | 47.48073 | 19.20678 | 37940 ft | 450 kts | 292° |
| 2026-05-06 11:20 | 47.50827 | 19.12355 | 37944 ft | 450 kts | 292° |
| 2026-05-06 11:20 | 47.53466 | 19.04353 | 37927 ft | 451 kts | 291° |
| 2026-05-06 11:21 | 47.56197 | 18.96047 | 37930 ft | 452 kts | 291° |
| 2026-05-06 11:21 | 47.58938 | 18.87683 | 37924 ft | 452 kts | 291° |
| 2026-05-06 11:22 | 47.61677 | 18.79298 | 37918 ft | 452 kts | 291° |
| 2026-05-06 11:22 | 47.63949 | 18.72319 | 37902 ft | 453 kts | 291° |
| 2026-05-06 11:23 | 47.66682 | 18.63900 | 37905 ft | 453 kts | 291° |
| 2026-05-06 11:23 | 47.69412 | 18.55463 | 37903 ft | 454 kts | 291° |
| 2026-05-06 11:24 | 47.72141 | 18.47002 | 37901 ft | 454 kts | 291° |
| 2026-05-06 11:24 | 47.74862 | 18.38539 | 37922 ft | 454 kts | 291° |
| 2026-05-06 11:25 | 47.77588 | 18.30027 | 37884 ft | 456 kts | 291° |
| 2026-05-06 11:25 | 47.80293 | 18.21556 | 37893 ft | 457 kts | 291° |
| 2026-05-06 11:26 | 47.83015 | 18.13001 | 37890 ft | 457 kts | 291° |
| 2026-05-06 11:26 | 47.85732 | 18.04434 | 37896 ft | 458 kts | 291° |
| 2026-05-06 11:27 | 47.88448 | 17.95843 | 37888 ft | 459 kts | 291° |
| 2026-05-06 11:27 | 47.91165 | 17.87218 | 37880 ft | 460 kts | 290° |
| 2026-05-06 11:28 | 47.93879 | 17.78572 | 37876 ft | 460 kts | 290° |
| 2026-05-06 11:28 | 47.96587 | 17.69917 | 37886 ft | 460 kts | 290° |
| 2026-05-06 11:29 | 47.99270 | 17.61309 | 37867 ft | 461 kts | 290° |
| 2026-05-06 11:29 | 48.01986 | 17.52569 | 37860 ft | 461 kts | 290° |
| 2026-05-06 11:30 | 48.04660 | 17.43930 | 37863 ft | 461 kts | 290° |
| 2026-05-06 11:30 | 48.07350 | 17.35213 | 37855 ft | 461 kts | 290° |
| 2026-05-06 11:31 | 48.10029 | 17.26497 | 37870 ft | 462 kts | 290° |
| 2026-05-06 11:31 | 48.12705 | 17.17762 | 37850 ft | 463 kts | 290° |
| 2026-05-06 11:32 | 48.15384 | 17.08998 | 37853 ft | 463 kts | 290° |
| 2026-05-06 11:32 | 48.18064 | 17.00212 | 37857 ft | 464 kts | 290° |
| 2026-05-06 11:33 | 48.20904 | 16.91504 | 37853 ft | 467 kts | 295° |
| 2026-05-06 11:33 | 48.24221 | 16.83118 | 37836 ft | 468 kts | 296° |
| 2026-05-06 11:34 | 48.27490 | 16.74703 | 37839 ft | 468 kts | 295° |
| 2026-05-06 11:34 | 48.30702 | 16.66237 | 37837 ft | 468 kts | 295° |
| 2026-05-06 11:35 | 48.33910 | 16.57718 | 37839 ft | 468 kts | 295° |
| 2026-05-06 11:35 | 48.37108 | 16.49200 | 37832 ft | 468 kts | 295° |
| 2026-05-06 11:36 | 48.40306 | 16.40657 | 37828 ft | 468 kts | 294° |
| 2026-05-06 11:36 | 48.43480 | 16.32151 | 37824 ft | 468 kts | 294° |
| 2026-05-06 11:37 | 48.46667 | 16.23584 | 37829 ft | 468 kts | 294° |
| 2026-05-06 11:37 | 48.49827 | 16.15059 | 37830 ft | 469 kts | 294° |
| 2026-05-06 11:38 | 48.53001 | 16.06469 | 37829 ft | 469 kts | 294° |
| 2026-05-06 11:38 | 48.56161 | 15.97892 | 37826 ft | 468 kts | 294° |
| 2026-05-06 11:39 | 48.59253 | 15.89470 | 37823 ft | 468 kts | 294° |
| 2026-05-06 11:39 | 48.62401 | 15.80865 | 37833 ft | 467 kts | 294° |
| 2026-05-06 11:40 | 48.65525 | 15.72300 | 37789 ft | 468 kts | 294° |
| 2026-05-06 11:40 | 48.68663 | 15.63669 | 37787 ft | 469 kts | 294° |
| 2026-05-06 11:41 | 48.71882 | 15.55062 | 37794 ft | 471 kts | 297° |
| 2026-05-06 11:41 | 48.75350 | 15.46830 | 37793 ft | 472 kts | 297° |
| 2026-05-06 11:42 | 48.78860 | 15.38431 | 37781 ft | 473 kts | 297° |
| 2026-05-06 11:42 | 48.82338 | 15.29967 | 37785 ft | 474 kts | 297° |
| 2026-05-06 11:43 | 48.85818 | 15.21446 | 37789 ft | 475 kts | 297° |
| 2026-05-06 11:43 | 48.89295 | 15.12908 | 37797 ft | 475 kts | 297° |
| 2026-05-06 11:44 | 48.95149 | 15.00722 | 37815 ft | 479 kts | 301° |
| 2026-05-06 11:44 | 48.99116 | 14.92577 | 37814 ft | 479 kts | 301° |
| 2026-05-06 11:45 | 49.03087 | 14.84404 | 37815 ft | 480 kts | 301° |
| 2026-05-06 11:45 | 49.07050 | 14.76220 | 37818 ft | 479 kts | 301° |
| 2026-05-06 11:46 | 49.11005 | 14.68028 | 37824 ft | 479 kts | 301° |
| 2026-05-06 11:46 | 49.14928 | 14.59877 | 37830 ft | 479 kts | 301° |
| 2026-05-06 11:47 | 49.18867 | 14.51669 | 37825 ft | 478 kts | 301° |
| 2026-05-06 11:47 | 49.22793 | 14.43460 | 37829 ft | 478 kts | 301° |
| 2026-05-06 11:48 | 49.26717 | 14.35232 | 37829 ft | 478 kts | 301° |
| 2026-05-06 11:48 | 49.30638 | 14.26984 | 37823 ft | 479 kts | 301° |
| 2026-05-06 11:49 | 49.34549 | 14.18733 | 37828 ft | 479 kts | 301° |
| 2026-05-06 11:49 | 49.38463 | 14.10450 | 37825 ft | 478 kts | 301° |
| 2026-05-06 11:50 | 49.42354 | 14.02187 | 37818 ft | 478 kts | 301° |
| 2026-05-06 11:50 | 49.46213 | 13.93970 | 37790 ft | 478 kts | 301° |
| 2026-05-06 11:51 | 49.50088 | 13.85692 | 37793 ft | 478 kts | 300° |
| 2026-05-06 11:51 | 49.53966 | 13.77381 | 37799 ft | 477 kts | 300° |
| 2026-05-06 11:52 | 49.57837 | 13.69060 | 37801 ft | 477 kts | 300° |
| 2026-05-06 11:52 | 49.61683 | 13.60767 | 37824 ft | 477 kts | 300° |
| 2026-05-06 11:53 | 49.65518 | 13.52471 | 37808 ft | 478 kts | 301° |
| 2026-05-06 11:53 | 49.69396 | 13.44058 | 37815 ft | 478 kts | 301° |
| 2026-05-06 11:54 | 49.73219 | 13.35737 | 37815 ft | 478 kts | 301° |
| 2026-05-06 11:54 | 49.77062 | 13.27344 | 37814 ft | 478 kts | 301° |
| 2026-05-06 11:55 | 49.80901 | 13.18935 | 37811 ft | 478 kts | 301° |
| 2026-05-06 11:55 | 49.84732 | 13.10518 | 37781 ft | 478 kts | 301° |
| 2026-05-06 11:56 | 49.88562 | 13.02075 | 37783 ft | 479 kts | 301° |
| 2026-05-06 11:56 | 49.92386 | 12.93616 | 37793 ft | 479 kts | 301° |
| 2026-05-06 11:57 | 49.96199 | 12.85159 | 37807 ft | 479 kts | 301° |
| 2026-05-06 11:57 | 49.99990 | 12.76720 | 37802 ft | 480 kts | 301° |
| 2026-05-06 11:58 | 50.03803 | 12.68208 | 37800 ft | 480 kts | 301° |
| 2026-05-06 11:58 | 50.07610 | 12.59679 | 37799 ft | 480 kts | 301° |
| 2026-05-06 11:59 | 50.11417 | 12.51124 | 37794 ft | 480 kts | 301° |
| 2026-05-06 11:59 | 50.15208 | 12.42578 | 37793 ft | 481 kts | 301° |
| 2026-05-06 12:00 | 50.18669 | 12.33687 | 37771 ft | 477 kts | 293° |
| 2026-05-06 12:00 | 50.21240 | 12.24271 | 37775 ft | 473 kts | 285° |
| 2026-05-06 12:01 | 50.23460 | 12.14591 | 37783 ft | 473 kts | 286° |
| 2026-05-06 12:01 | 50.25702 | 12.04906 | 37776 ft | 474 kts | 285° |
| 2026-05-06 12:02 | 50.27927 | 11.95194 | 37794 ft | 475 kts | 285° |
| 2026-05-06 12:02 | 50.30144 | 11.85540 | 37796 ft | 475 kts | 285° |
| 2026-05-06 12:03 | 50.32361 | 11.75830 | 37797 ft | 475 kts | 285° |
| 2026-05-06 12:03 | 50.34569 | 11.66113 | 37796 ft | 475 kts | 285° |
| 2026-05-06 12:04 | 50.36776 | 11.56346 | 37781 ft | 476 kts | 285° |
| 2026-05-06 12:04 | 50.38976 | 11.46563 | 37777 ft | 477 kts | 285° |
| 2026-05-06 12:05 | 50.41151 | 11.36848 | 37778 ft | 477 kts | 285° |
| 2026-05-06 12:05 | 50.43335 | 11.27046 | 37773 ft | 477 kts | 285° |
| 2026-05-06 12:06 | 50.44421 | 11.22149 | 37593 ft | 473 kts | 285° |
| 2026-05-06 12:06 | 50.45495 | 11.17303 | 37166 ft | 469 kts | 285° |
| 2026-05-06 12:06 | 50.46563 | 11.12462 | 36506 ft | 467 kts | 284° |
| 2026-05-06 12:06 | 50.47623 | 11.07646 | 35849 ft | 466 kts | 284° |
| 2026-05-06 12:07 | 50.48670 | 11.02880 | 35211 ft | 463 kts | 284° |
| 2026-05-06 12:07 | 50.49705 | 10.98161 | 34593 ft | 460 kts | 283° |
| 2026-05-06 12:07 | 50.50741 | 10.93422 | 33989 ft | 458 kts | 283° |
| 2026-05-06 12:07 | 50.51771 | 10.88701 | 33294 ft | 454 kts | 283° |
| 2026-05-06 12:08 | 50.52792 | 10.84015 | 32517 ft | 450 kts | 283° |
| 2026-05-06 12:08 | 50.53801 | 10.79387 | 31721 ft | 445 kts | 283° |
| 2026-05-06 12:08 | 50.54833 | 10.74821 | 30964 ft | 440 kts | 283° |
| 2026-05-06 12:08 | 50.55859 | 10.70331 | 30245 ft | 435 kts | 284° |
| 2026-05-06 12:09 | 50.56879 | 10.65868 | 29448 ft | 430 kts | 284° |
| 2026-05-06 12:09 | 50.57882 | 10.61455 | 28587 ft | 425 kts | 284° |
| 2026-05-06 12:09 | 50.58535 | 10.58567 | 28051 ft | 422 kts | 284° |
| 2026-05-06 12:09 | 50.59514 | 10.54236 | 27235 ft | 417 kts | 284° |
| 2026-05-06 12:10 | 50.60477 | 10.49969 | 26448 ft | 413 kts | 285° |
| 2026-05-06 12:10 | 50.61428 | 10.45755 | 25687 ft | 408 kts | 285° |
| 2026-05-06 12:10 | 50.62371 | 10.41566 | 24938 ft | 403 kts | 285° |
| 2026-05-06 12:10 | 50.63297 | 10.37444 | 24214 ft | 399 kts | 285° |
| 2026-05-06 12:11 | 50.64163 | 10.33334 | 23503 ft | 391 kts | 279° |
| 2026-05-06 12:11 | 50.64451 | 10.29147 | 22728 ft | 381 kts | 265° |
| 2026-05-06 12:11 | 50.64075 | 10.25128 | 21921 ft | 373 kts | 251° |
| 2026-05-06 12:11 | 50.63100 | 10.21394 | 21146 ft | 366 kts | 239° |
| 2026-05-06 12:12 | 50.61858 | 10.17905 | 20374 ft | 363 kts | 240° |
| 2026-05-06 12:12 | 50.60651 | 10.14428 | 19626 ft | 361 kts | 240° |
| 2026-05-06 12:12 | 50.59469 | 10.10997 | 18891 ft | 359 kts | 240° |
| 2026-05-06 12:12 | 50.58278 | 10.07552 | 18184 ft | 357 kts | 240° |
| 2026-05-06 12:13 | 50.57093 | 10.04137 | 17385 ft | 355 kts | 240° |
| 2026-05-06 12:13 | 50.55912 | 10.00745 | 16592 ft | 352 kts | 240° |
| 2026-05-06 12:13 | 50.54746 | 9.97374 | 15828 ft | 349 kts | 242° |
| 2026-05-06 12:13 | 50.53800 | 9.93872 | 15079 ft | 347 kts | 250° |
| 2026-05-06 12:14 | 50.53137 | 9.90230 | 14405 ft | 344 kts | 253° |
| 2026-05-06 12:14 | 50.52511 | 9.86641 | 13847 ft | 338 kts | 253° |
| 2026-05-06 12:14 | 50.51882 | 9.83133 | 13389 ft | 330 kts | 252° |
| 2026-05-06 12:14 | 50.51264 | 9.79715 | 12928 ft | 320 kts | 252° |
| 2026-05-06 12:15 | 50.50626 | 9.76423 | 12499 ft | 308 kts | 244° |
| 2026-05-06 12:15 | 50.49470 | 9.73776 | 12411 ft | 292 kts | 226° |
| 2026-05-06 12:15 | 50.48107 | 9.71497 | 12243 ft | 282 kts | 227° |
| 2026-05-06 12:15 | 50.46802 | 9.69267 | 12127 ft | 271 kts | 227° |
| 2026-05-06 12:16 | 50.45561 | 9.67136 | 12049 ft | 256 kts | 227° |
| 2026-05-06 12:16 | 50.44366 | 9.65089 | 11751 ft | 254 kts | 227° |
| 2026-05-06 12:16 | 50.43173 | 9.63053 | 11504 ft | 255 kts | 227° |
| 2026-05-06 12:16 | 50.41970 | 9.61007 | 11251 ft | 254 kts | 227° |
| 2026-05-06 12:17 | 50.40768 | 9.58966 | 10994 ft | 254 kts | 227° |
| 2026-05-06 12:17 | 50.39571 | 9.56936 | 10737 ft | 252 kts | 227° |
| 2026-05-06 12:17 | 50.38389 | 9.54934 | 10506 ft | 251 kts | 227° |
| 2026-05-06 12:17 | 50.37207 | 9.52929 | 10272 ft | 249 kts | 227° |
| 2026-05-06 12:18 | 50.36049 | 9.50969 | 10023 ft | 249 kts | 227° |
| 2026-05-06 12:18 | 50.34880 | 9.48990 | 9845 ft | 247 kts | 227° |
| 2026-05-06 12:18 | 50.33697 | 9.46992 | 9713 ft | 247 kts | 227° |
| 2026-05-06 12:18 | 50.32549 | 9.45053 | 9599 ft | 248 kts | 227° |
| 2026-05-06 12:19 | 50.31373 | 9.43069 | 9411 ft | 248 kts | 227° |
| 2026-05-06 12:19 | 50.30203 | 9.41098 | 9160 ft | 245 kts | 227° |
| 2026-05-06 12:19 | 50.29063 | 9.39177 | 8877 ft | 244 kts | 227° |
| 2026-05-06 12:19 | 50.27902 | 9.37222 | 8601 ft | 243 kts | 227° |
| 2026-05-06 12:20 | 50.26765 | 9.35310 | 8506 ft | 236 kts | 227° |
| 2026-05-06 12:20 | 50.25658 | 9.33452 | 8301 ft | 231 kts | 227° |
| 2026-05-06 12:20 | 50.24570 | 9.31623 | 7856 ft | 233 kts | 227° |
| 2026-05-06 12:20 | 50.23468 | 9.29773 | 7478 ft | 231 kts | 227° |
| 2026-05-06 12:21 | 50.22379 | 9.27945 | 7289 ft | 231 kts | 227° |
| 2026-05-06 12:21 | 50.21279 | 9.26105 | 7021 ft | 231 kts | 227° |
| 2026-05-06 12:21 | 50.20179 | 9.24262 | 6761 ft | 231 kts | 227° |
| 2026-05-06 12:21 | 50.19156 | 9.22367 | 6456 ft | 229 kts | 236° |
| 2026-05-06 12:22 | 50.18431 | 9.20159 | 6224 ft | 230 kts | 248° |
| 2026-05-06 12:22 | 50.17953 | 9.17790 | 5954 ft | 231 kts | 252° |
| 2026-05-06 12:22 | 50.17472 | 9.15429 | 5684 ft | 230 kts | 250° |
| 2026-05-06 12:22 | 50.16941 | 9.13081 | 5416 ft | 230 kts | 248° |
| 2026-05-06 12:23 | 50.16388 | 9.10738 | 5141 ft | 230 kts | 248° |
| 2026-05-06 12:23 | 50.15837 | 9.08419 | 4995 ft | 225 kts | 248° |
| 2026-05-06 12:23 | 50.15414 | 9.06628 | 4831 ft | 223 kts | 248° |
| 2026-05-06 12:23 | 50.14885 | 9.04399 | 4668 ft | 215 kts | 248° |
| 2026-05-06 12:24 | 50.14385 | 9.02291 | 4563 ft | 202 kts | 248° |
| 2026-05-06 12:24 | 50.13930 | 9.00370 | 4306 ft | 177 kts | 248° |
| 2026-05-06 12:24 | 50.13499 | 8.98561 | 4018 ft | 182 kts | 248° |
| 2026-05-06 12:24 | 50.13051 | 8.96674 | 3985 ft | 186 kts | 248° |
| 2026-05-06 12:25 | 50.12597 | 8.94763 | 3992 ft | 189 kts | 248° |
| 2026-05-06 12:25 | 50.12143 | 8.92852 | 3990 ft | 192 kts | 248° |
| 2026-05-06 12:25 | 50.11679 | 8.90899 | 3992 ft | 187 kts | 248° |
| 2026-05-06 12:25 | 50.11264 | 8.89147 | 3995 ft | 175 kts | 248° |
| 2026-05-06 12:26 | 50.10847 | 8.87395 | 3991 ft | 169 kts | 248° |
| 2026-05-06 12:26 | 50.10442 | 8.85689 | 3965 ft | 167 kts | 247° |
| 2026-05-06 12:26 | 50.10042 | 8.84004 | 3789 ft | 166 kts | 247° |
| 2026-05-06 12:26 | 50.09646 | 8.82346 | 3568 ft | 166 kts | 247° |
| 2026-05-06 12:27 | 50.09264 | 8.80730 | 3350 ft | 146 kts | 247° |
| 2026-05-06 12:27 | 50.08929 | 8.79321 | 3160 ft | 140 kts | 247° |
| 2026-05-06 12:27 | 50.08564 | 8.77805 | 2972 ft | 160 kts | 246° |
| 2026-05-06 12:27 | 50.08171 | 8.76139 | 2759 ft | 164 kts | 247° |
| 2026-05-06 12:28 | 50.07773 | 8.74466 | 2527 ft | 164 kts | 247° |
| 2026-05-06 12:28 | 50.07376 | 8.72804 | 2304 ft | 157 kts | 247° |
| 2026-05-06 12:28 | 50.07020 | 8.71299 | 2099 ft | 140 kts | 246° |
| 2026-05-06 12:28 | 50.06682 | 8.69886 | 1911 ft | 139 kts | 247° |
| 2026-05-06 12:29 | 50.06351 | 8.68493 | 1738 ft | 135 kts | 246° |
| 2026-05-06 12:29 | 50.06037 | 8.67160 | 1549 ft | 132 kts | 247° |
| 2026-05-06 12:29 | 50.05717 | 8.65828 | 1381 ft | 131 kts | 247° |
| 2026-05-06 12:29 | 50.05396 | 8.64496 | 1192 ft | 131 kts | 247° |
| 2026-05-06 12:30 | 50.05074 | 8.63142 | 1024 ft | 136 kts | 248° |
| 2026-05-06 12:30 | 50.04760 | 8.61788 | 804 ft | 132 kts | 245° |
| 2026-05-06 12:30 | 50.04446 | 8.60502 | 654 ft | 131 kts | 246° |
| 2026-05-06 12:30 | 50.04125 | 8.59153 | 471 ft | 136 kts | 245° |
| 2026-05-06 12:31 | 50.03813 | 8.57809 | 368 ft | 124 kts | 244° |
| 2026-05-06 12:31 | 50.03549 | 8.56762 | 363 ft | 85 kts | 249° |
| 2026-05-06 12:31 | 50.03376 | 8.56036 | 363 ft | 60 kts | 249° |
| 2026-05-06 12:31 | 50.03256 | 8.55517 | 358 ft | 44 kts | 249° |
| 2026-05-06 12:32 | 50.03179 | 8.55135 | 355 ft | 30 kts | 262° |
| 2026-05-06 12:32 | 50.03192 | 8.54850 | 350 ft | 13 kts | 278° |
| 2026-05-06 12:32 | 50.03206 | 8.54703 | 353 ft | 10 kts | 278° |
| 2026-05-06 12:32 | 50.03231 | 8.54613 | 354 ft | 2 kts | 333° |
| 2026-05-06 12:33 | 50.03258 | 8.54612 | 351 ft | 6 kts | 23° |
| 2026-05-06 12:33 | 50.03305 | 8.54690 | 355 ft | 14 kts | 65° |
| 2026-05-06 12:33 | 50.03345 | 8.54853 | 351 ft | 16 kts | 70° |
| 2026-05-06 12:33 | 50.03386 | 8.55025 | 358 ft | 18 kts | 70° |
| 2026-05-06 12:34 | 50.03428 | 8.55202 | 357 ft | 15 kts | 69° |
| 2026-05-06 12:34 | 50.03467 | 8.55366 | 358 ft | 18 kts | 70° |
| 2026-05-06 12:34 | 50.03511 | 8.55549 | 361 ft | 18 kts | 69° |